<?xml version="1.0" encoding="UTF-8" standalone="no" ?>
<gpx xmlns="http://www.topografix.com/GPX/1/1" xmlns:xsi="http://www.w3.org/2001/XMLSchema-instance" xsi:schemaLocation="http://www.topografix.com/GPX/1/1 http://www.topografix.com/GPX/1/1/gpx.xsd" version="1.1" creator="VisuGPX - https://www.visugpx.com">
  <metadata>
    <name>Entre Lacapelle et Blanquefort</name>
    <desc><![CDATA[Une boucle avec une première moitié assez cassante et une deuxième plus tranquille.]]></desc>
  </metadata>
  <trk>
    <name><![CDATA[16-DEC-12 12:12:07]]></name>
    <trkseg>
      <trkpt lat="44.59987" lon="0.8956">
        <ele>165</ele>
        <time>2012-12-16T07:46:41Z</time>
      </trkpt>
      <trkpt lat="44.5999" lon="0.89562">
        <ele>168.85</ele>
        <time>2012-12-16T07:47:14Z</time>
      </trkpt>
      <trkpt lat="44.59987" lon="0.89562">
        <ele>168.85</ele>
        <time>2012-12-16T07:47:47Z</time>
      </trkpt>
      <trkpt lat="44.5999" lon="0.89565">
        <ele>165</ele>
        <time>2012-12-16T07:48:27Z</time>
      </trkpt>
      <trkpt lat="44.5999" lon="0.89564">
        <ele>165.96</ele>
        <time>2012-12-16T07:49:13Z</time>
      </trkpt>
      <trkpt lat="44.60001" lon="0.89564">
        <ele>165.96</ele>
        <time>2012-12-16T07:49:23Z</time>
      </trkpt>
      <trkpt lat="44.60007" lon="0.89563">
        <ele>165.96</ele>
        <time>2012-12-16T07:49:25Z</time>
      </trkpt>
      <trkpt lat="44.60015" lon="0.89548">
        <ele>166.93</ele>
        <time>2012-12-16T07:49:29Z</time>
      </trkpt>
      <trkpt lat="44.60017" lon="0.89538">
        <ele>166.93</ele>
        <time>2012-12-16T07:49:31Z</time>
      </trkpt>
      <trkpt lat="44.60047" lon="0.89514">
        <ele>168.37</ele>
        <time>2012-12-16T07:49:42Z</time>
      </trkpt>
      <trkpt lat="44.6006" lon="0.89507">
        <ele>169.81</ele>
        <time>2012-12-16T07:49:47Z</time>
      </trkpt>
      <trkpt lat="44.60057" lon="0.89494">
        <ele>170.77</ele>
        <time>2012-12-16T07:49:55Z</time>
      </trkpt>
      <trkpt lat="44.60058" lon="0.89496">
        <ele>172.21</ele>
        <time>2012-12-16T07:50:09Z</time>
      </trkpt>
      <trkpt lat="44.60057" lon="0.89494">
        <ele>172.69</ele>
        <time>2012-12-16T07:50:26Z</time>
      </trkpt>
      <trkpt lat="44.60057" lon="0.89494">
        <ele>171.73</ele>
        <time>2012-12-16T07:50:47Z</time>
      </trkpt>
      <trkpt lat="44.60058" lon="0.89495">
        <ele>173.17</ele>
        <time>2012-12-16T07:51:08Z</time>
      </trkpt>
      <trkpt lat="44.60057" lon="0.89494">
        <ele>171.73</ele>
        <time>2012-12-16T07:51:36Z</time>
      </trkpt>
      <trkpt lat="44.60057" lon="0.89495">
        <ele>171.25</ele>
        <time>2012-12-16T07:51:52Z</time>
      </trkpt>
      <trkpt lat="44.60058" lon="0.89496">
        <ele>172.21</ele>
        <time>2012-12-16T07:52:09Z</time>
      </trkpt>
      <trkpt lat="44.60057" lon="0.89492">
        <ele>171.25</ele>
        <time>2012-12-16T07:52:29Z</time>
      </trkpt>
      <trkpt lat="44.60058" lon="0.89496">
        <ele>170.77</ele>
        <time>2012-12-16T07:52:57Z</time>
      </trkpt>
      <trkpt lat="44.60057" lon="0.89495">
        <ele>170.77</ele>
        <time>2012-12-16T07:53:20Z</time>
      </trkpt>
      <trkpt lat="44.60057" lon="0.89495">
        <ele>170.77</ele>
        <time>2012-12-16T07:53:47Z</time>
      </trkpt>
      <trkpt lat="44.60057" lon="0.89497">
        <ele>174.62</ele>
        <time>2012-12-16T07:54:11Z</time>
      </trkpt>
      <trkpt lat="44.60059" lon="0.89496">
        <ele>174.14</ele>
        <time>2012-12-16T07:54:32Z</time>
      </trkpt>
      <trkpt lat="44.6006" lon="0.89495">
        <ele>173.17</ele>
        <time>2012-12-16T07:54:35Z</time>
      </trkpt>
      <trkpt lat="44.60067" lon="0.895">
        <ele>172.69</ele>
        <time>2012-12-16T07:54:40Z</time>
      </trkpt>
      <trkpt lat="44.60072" lon="0.89511">
        <ele>172.69</ele>
        <time>2012-12-16T07:54:46Z</time>
      </trkpt>
      <trkpt lat="44.60065" lon="0.89563">
        <ele>170.29</ele>
        <time>2012-12-16T07:55:01Z</time>
      </trkpt>
      <trkpt lat="44.60064" lon="0.89637">
        <ele>168.37</ele>
        <time>2012-12-16T07:55:18Z</time>
      </trkpt>
      <trkpt lat="44.60058" lon="0.89661">
        <ele>167.89</ele>
        <time>2012-12-16T07:55:30Z</time>
      </trkpt>
      <trkpt lat="44.60054" lon="0.8967">
        <ele>169.33</ele>
        <time>2012-12-16T07:55:41Z</time>
      </trkpt>
      <trkpt lat="44.60047" lon="0.89689">
        <ele>166.93</ele>
        <time>2012-12-16T07:55:53Z</time>
      </trkpt>
      <trkpt lat="44.60039" lon="0.89717">
        <ele>163.56</ele>
        <time>2012-12-16T07:56:03Z</time>
      </trkpt>
      <trkpt lat="44.60037" lon="0.89731">
        <ele>162.6</ele>
        <time>2012-12-16T07:56:08Z</time>
      </trkpt>
      <trkpt lat="44.60038" lon="0.89766">
        <ele>165</ele>
        <time>2012-12-16T07:56:19Z</time>
      </trkpt>
      <trkpt lat="44.6003" lon="0.89817">
        <ele>163.56</ele>
        <time>2012-12-16T07:56:27Z</time>
      </trkpt>
      <trkpt lat="44.60028" lon="0.89826">
        <ele>163.08</ele>
        <time>2012-12-16T07:56:28Z</time>
      </trkpt>
      <trkpt lat="44.60019" lon="0.89853">
        <ele>160.68</ele>
        <time>2012-12-16T07:56:31Z</time>
      </trkpt>
      <trkpt lat="44.60025" lon="0.89914">
        <ele>156.35</ele>
        <time>2012-12-16T07:56:39Z</time>
      </trkpt>
      <trkpt lat="44.60025" lon="0.89922">
        <ele>156.35</ele>
        <time>2012-12-16T07:56:40Z</time>
      </trkpt>
      <trkpt lat="44.60017" lon="0.89963">
        <ele>155.39</ele>
        <time>2012-12-16T07:56:46Z</time>
      </trkpt>
      <trkpt lat="44.59995" lon="0.90028">
        <ele>154.91</ele>
        <time>2012-12-16T07:56:59Z</time>
      </trkpt>
      <trkpt lat="44.59975" lon="0.90077">
        <ele>155.87</ele>
        <time>2012-12-16T07:57:12Z</time>
      </trkpt>
      <trkpt lat="44.59959" lon="0.90108">
        <ele>156.83</ele>
        <time>2012-12-16T07:57:24Z</time>
      </trkpt>
      <trkpt lat="44.59958" lon="0.90145">
        <ele>158.75</ele>
        <time>2012-12-16T07:57:34Z</time>
      </trkpt>
      <trkpt lat="44.59971" lon="0.90198">
        <ele>164.52</ele>
        <time>2012-12-16T07:57:49Z</time>
      </trkpt>
      <trkpt lat="44.59988" lon="0.90251">
        <ele>169.33</ele>
        <time>2012-12-16T07:58:06Z</time>
      </trkpt>
      <trkpt lat="44.59992" lon="0.90292">
        <ele>172.21</ele>
        <time>2012-12-16T07:58:20Z</time>
      </trkpt>
      <trkpt lat="44.59994" lon="0.9034">
        <ele>175.58</ele>
        <time>2012-12-16T07:58:35Z</time>
      </trkpt>
      <trkpt lat="44.59999" lon="0.90376">
        <ele>176.54</ele>
        <time>2012-12-16T07:58:48Z</time>
      </trkpt>
      <trkpt lat="44.60001" lon="0.90413">
        <ele>177.02</ele>
        <time>2012-12-16T07:59:02Z</time>
      </trkpt>
      <trkpt lat="44.60005" lon="0.9046">
        <ele>177.98</ele>
        <time>2012-12-16T07:59:19Z</time>
      </trkpt>
      <trkpt lat="44.60007" lon="0.90523">
        <ele>180.38</ele>
        <time>2012-12-16T07:59:39Z</time>
      </trkpt>
      <trkpt lat="44.60004" lon="0.90579">
        <ele>183.75</ele>
        <time>2012-12-16T07:59:56Z</time>
      </trkpt>
      <trkpt lat="44.60008" lon="0.90622">
        <ele>188.08</ele>
        <time>2012-12-16T08:00:12Z</time>
      </trkpt>
      <trkpt lat="44.60006" lon="0.90631">
        <ele>188.56</ele>
        <time>2012-12-16T08:00:17Z</time>
      </trkpt>
      <trkpt lat="44.60002" lon="0.9064">
        <ele>188.56</ele>
        <time>2012-12-16T08:00:22Z</time>
      </trkpt>
      <trkpt lat="44.59997" lon="0.90653">
        <ele>189.04</ele>
        <time>2012-12-16T08:00:28Z</time>
      </trkpt>
      <trkpt lat="44.59976" lon="0.90691">
        <ele>188.08</ele>
        <time>2012-12-16T08:00:44Z</time>
      </trkpt>
      <trkpt lat="44.59965" lon="0.90738">
        <ele>188.56</ele>
        <time>2012-12-16T08:00:57Z</time>
      </trkpt>
      <trkpt lat="44.59957" lon="0.90802">
        <ele>191.44</ele>
        <time>2012-12-16T08:01:15Z</time>
      </trkpt>
      <trkpt lat="44.59949" lon="0.90852">
        <ele>193.84</ele>
        <time>2012-12-16T08:01:30Z</time>
      </trkpt>
      <trkpt lat="44.59943" lon="0.90891">
        <ele>197.69</ele>
        <time>2012-12-16T08:01:42Z</time>
      </trkpt>
      <trkpt lat="44.59929" lon="0.90925">
        <ele>200.09</ele>
        <time>2012-12-16T08:01:55Z</time>
      </trkpt>
      <trkpt lat="44.59903" lon="0.90957">
        <ele>203.46</ele>
        <time>2012-12-16T08:02:10Z</time>
      </trkpt>
      <trkpt lat="44.59887" lon="0.90977">
        <ele>205.38</ele>
        <time>2012-12-16T08:02:19Z</time>
      </trkpt>
      <trkpt lat="44.59855" lon="0.91015">
        <ele>210.19</ele>
        <time>2012-12-16T08:02:36Z</time>
      </trkpt>
      <trkpt lat="44.59823" lon="0.91071">
        <ele>215.47</ele>
        <time>2012-12-16T08:02:56Z</time>
      </trkpt>
      <trkpt lat="44.59797" lon="0.91127">
        <ele>219.8</ele>
        <time>2012-12-16T08:03:14Z</time>
      </trkpt>
      <trkpt lat="44.59789" lon="0.91142">
        <ele>221.72</ele>
        <time>2012-12-16T08:03:20Z</time>
      </trkpt>
      <trkpt lat="44.59785" lon="0.91144">
        <ele>222.2</ele>
        <time>2012-12-16T08:03:33Z</time>
      </trkpt>
      <trkpt lat="44.59785" lon="0.91144">
        <ele>221.72</ele>
        <time>2012-12-16T08:03:48Z</time>
      </trkpt>
      <trkpt lat="44.59786" lon="0.91146">
        <ele>220.28</ele>
        <time>2012-12-16T08:04:11Z</time>
      </trkpt>
      <trkpt lat="44.59788" lon="0.91143">
        <ele>220.76</ele>
        <time>2012-12-16T08:04:30Z</time>
      </trkpt>
      <trkpt lat="44.59786" lon="0.91144">
        <ele>222.2</ele>
        <time>2012-12-16T08:04:50Z</time>
      </trkpt>
      <trkpt lat="44.59785" lon="0.91145">
        <ele>221.72</ele>
        <time>2012-12-16T08:05:11Z</time>
      </trkpt>
      <trkpt lat="44.59785" lon="0.91145">
        <ele>222.2</ele>
        <time>2012-12-16T08:05:40Z</time>
      </trkpt>
      <trkpt lat="44.59785" lon="0.91146">
        <ele>223.64</ele>
        <time>2012-12-16T08:06:12Z</time>
      </trkpt>
      <trkpt lat="44.59785" lon="0.91146">
        <ele>222.2</ele>
        <time>2012-12-16T08:06:37Z</time>
      </trkpt>
      <trkpt lat="44.59785" lon="0.91145">
        <ele>225.09</ele>
        <time>2012-12-16T08:06:58Z</time>
      </trkpt>
      <trkpt lat="44.59785" lon="0.91147">
        <ele>224.12</ele>
        <time>2012-12-16T08:07:05Z</time>
      </trkpt>
      <trkpt lat="44.59774" lon="0.91186">
        <ele>224.61</ele>
        <time>2012-12-16T08:07:20Z</time>
      </trkpt>
      <trkpt lat="44.59755" lon="0.91268">
        <ele>225.09</ele>
        <time>2012-12-16T08:07:39Z</time>
      </trkpt>
      <trkpt lat="44.59746" lon="0.91334">
        <ele>225.57</ele>
        <time>2012-12-16T08:07:54Z</time>
      </trkpt>
      <trkpt lat="44.59744" lon="0.91344">
        <ele>224.61</ele>
        <time>2012-12-16T08:07:57Z</time>
      </trkpt>
      <trkpt lat="44.59735" lon="0.91356">
        <ele>222.68</ele>
        <time>2012-12-16T08:08:02Z</time>
      </trkpt>
      <trkpt lat="44.59727" lon="0.91411">
        <ele>219.8</ele>
        <time>2012-12-16T08:08:14Z</time>
      </trkpt>
      <trkpt lat="44.59713" lon="0.91514">
        <ele>216.43</ele>
        <time>2012-12-16T08:08:31Z</time>
      </trkpt>
      <trkpt lat="44.59703" lon="0.91554">
        <ele>215.95</ele>
        <time>2012-12-16T08:08:38Z</time>
      </trkpt>
      <trkpt lat="44.59686" lon="0.91573">
        <ele>216.43</ele>
        <time>2012-12-16T08:08:43Z</time>
      </trkpt>
      <trkpt lat="44.59656" lon="0.91585">
        <ele>214.99</ele>
        <time>2012-12-16T08:08:48Z</time>
      </trkpt>
      <trkpt lat="44.59613" lon="0.91609">
        <ele>214.03</ele>
        <time>2012-12-16T08:08:54Z</time>
      </trkpt>
      <trkpt lat="44.59574" lon="0.91613">
        <ele>214.99</ele>
        <time>2012-12-16T08:09:02Z</time>
      </trkpt>
      <trkpt lat="44.59565" lon="0.91615">
        <ele>215.47</ele>
        <time>2012-12-16T08:09:04Z</time>
      </trkpt>
      <trkpt lat="44.5955" lon="0.91624">
        <ele>215.95</ele>
        <time>2012-12-16T08:09:08Z</time>
      </trkpt>
      <trkpt lat="44.59525" lon="0.9163">
        <ele>216.43</ele>
        <time>2012-12-16T08:09:14Z</time>
      </trkpt>
      <trkpt lat="44.595" lon="0.91666">
        <ele>213.55</ele>
        <time>2012-12-16T08:09:20Z</time>
      </trkpt>
      <trkpt lat="44.59472" lon="0.91699">
        <ele>207.78</ele>
        <time>2012-12-16T08:09:28Z</time>
      </trkpt>
      <trkpt lat="44.59465" lon="0.91703">
        <ele>207.3</ele>
        <time>2012-12-16T08:09:30Z</time>
      </trkpt>
      <trkpt lat="44.59442" lon="0.91712">
        <ele>207.78</ele>
        <time>2012-12-16T08:09:36Z</time>
      </trkpt>
      <trkpt lat="44.59407" lon="0.91724">
        <ele>209.7</ele>
        <time>2012-12-16T08:09:48Z</time>
      </trkpt>
      <trkpt lat="44.59376" lon="0.9173">
        <ele>213.55</ele>
        <time>2012-12-16T08:10:00Z</time>
      </trkpt>
      <trkpt lat="44.59345" lon="0.91745">
        <ele>217.4</ele>
        <time>2012-12-16T08:10:12Z</time>
      </trkpt>
      <trkpt lat="44.59311" lon="0.91762">
        <ele>218.36</ele>
        <time>2012-12-16T08:10:25Z</time>
      </trkpt>
      <trkpt lat="44.59278" lon="0.91781">
        <ele>220.76</ele>
        <time>2012-12-16T08:10:34Z</time>
      </trkpt>
      <trkpt lat="44.59268" lon="0.91788">
        <ele>223.16</ele>
        <time>2012-12-16T08:10:45Z</time>
      </trkpt>
      <trkpt lat="44.59264" lon="0.91788">
        <ele>226.05</ele>
        <time>2012-12-16T08:11:08Z</time>
      </trkpt>
      <trkpt lat="44.59263" lon="0.91791">
        <ele>228.93</ele>
        <time>2012-12-16T08:11:30Z</time>
      </trkpt>
      <trkpt lat="44.59262" lon="0.91789">
        <ele>231.81</ele>
        <time>2012-12-16T08:11:51Z</time>
      </trkpt>
      <trkpt lat="44.59261" lon="0.91792">
        <ele>233.26</ele>
        <time>2012-12-16T08:12:09Z</time>
      </trkpt>
      <trkpt lat="44.59251" lon="0.91797">
        <ele>233.26</ele>
        <time>2012-12-16T08:12:25Z</time>
      </trkpt>
      <trkpt lat="44.59224" lon="0.91801">
        <ele>232.78</ele>
        <time>2012-12-16T08:12:41Z</time>
      </trkpt>
      <trkpt lat="44.59203" lon="0.91806">
        <ele>233.26</ele>
        <time>2012-12-16T08:12:54Z</time>
      </trkpt>
      <trkpt lat="44.59183" lon="0.91799">
        <ele>233.74</ele>
        <time>2012-12-16T08:13:07Z</time>
      </trkpt>
      <trkpt lat="44.59155" lon="0.91803">
        <ele>234.22</ele>
        <time>2012-12-16T08:13:21Z</time>
      </trkpt>
      <trkpt lat="44.59124" lon="0.91815">
        <ele>238.54</ele>
        <time>2012-12-16T08:13:36Z</time>
      </trkpt>
      <trkpt lat="44.59096" lon="0.91829">
        <ele>243.35</ele>
        <time>2012-12-16T08:13:46Z</time>
      </trkpt>
      <trkpt lat="44.59056" lon="0.91847">
        <ele>248.16</ele>
        <time>2012-12-16T08:13:59Z</time>
      </trkpt>
      <trkpt lat="44.59021" lon="0.91863">
        <ele>246.23</ele>
        <time>2012-12-16T08:14:10Z</time>
      </trkpt>
      <trkpt lat="44.58966" lon="0.91887">
        <ele>247.2</ele>
        <time>2012-12-16T08:14:25Z</time>
      </trkpt>
      <trkpt lat="44.58924" lon="0.91895">
        <ele>250.08</ele>
        <time>2012-12-16T08:14:37Z</time>
      </trkpt>
      <trkpt lat="44.58897" lon="0.91889">
        <ele>252.96</ele>
        <time>2012-12-16T08:14:49Z</time>
      </trkpt>
      <trkpt lat="44.58895" lon="0.91888">
        <ele>252</ele>
        <time>2012-12-16T08:15:05Z</time>
      </trkpt>
      <trkpt lat="44.58894" lon="0.91889">
        <ele>251.52</ele>
        <time>2012-12-16T08:15:35Z</time>
      </trkpt>
      <trkpt lat="44.58892" lon="0.91887">
        <ele>253.93</ele>
        <time>2012-12-16T08:15:54Z</time>
      </trkpt>
      <trkpt lat="44.58892" lon="0.91885">
        <ele>256.33</ele>
        <time>2012-12-16T08:16:10Z</time>
      </trkpt>
      <trkpt lat="44.58893" lon="0.91884">
        <ele>254.89</ele>
        <time>2012-12-16T08:16:28Z</time>
      </trkpt>
      <trkpt lat="44.58895" lon="0.91886">
        <ele>253.93</ele>
        <time>2012-12-16T08:16:52Z</time>
      </trkpt>
      <trkpt lat="44.58892" lon="0.91883">
        <ele>254.89</ele>
        <time>2012-12-16T08:17:14Z</time>
      </trkpt>
      <trkpt lat="44.58892" lon="0.91885">
        <ele>255.85</ele>
        <time>2012-12-16T08:17:32Z</time>
      </trkpt>
      <trkpt lat="44.58894" lon="0.91888">
        <ele>255.37</ele>
        <time>2012-12-16T08:17:53Z</time>
      </trkpt>
      <trkpt lat="44.58892" lon="0.91883">
        <ele>253.93</ele>
        <time>2012-12-16T08:18:07Z</time>
      </trkpt>
      <trkpt lat="44.58883" lon="0.91862">
        <ele>253.93</ele>
        <time>2012-12-16T08:18:15Z</time>
      </trkpt>
      <trkpt lat="44.58863" lon="0.91814">
        <ele>255.37</ele>
        <time>2012-12-16T08:18:27Z</time>
      </trkpt>
      <trkpt lat="44.5886" lon="0.91808">
        <ele>255.37</ele>
        <time>2012-12-16T08:18:29Z</time>
      </trkpt>
      <trkpt lat="44.58845" lon="0.91823">
        <ele>254.89</ele>
        <time>2012-12-16T08:18:39Z</time>
      </trkpt>
      <trkpt lat="44.58818" lon="0.91855">
        <ele>252.96</ele>
        <time>2012-12-16T08:18:52Z</time>
      </trkpt>
      <trkpt lat="44.58783" lon="0.91895">
        <ele>251.04</ele>
        <time>2012-12-16T08:19:05Z</time>
      </trkpt>
      <trkpt lat="44.58744" lon="0.91937">
        <ele>249.6</ele>
        <time>2012-12-16T08:19:20Z</time>
      </trkpt>
      <trkpt lat="44.58711" lon="0.91975">
        <ele>248.64</ele>
        <time>2012-12-16T08:19:33Z</time>
      </trkpt>
      <trkpt lat="44.58691" lon="0.91995">
        <ele>247.68</ele>
        <time>2012-12-16T08:19:40Z</time>
      </trkpt>
      <trkpt lat="44.58678" lon="0.91992">
        <ele>246.72</ele>
        <time>2012-12-16T08:19:44Z</time>
      </trkpt>
      <trkpt lat="44.58661" lon="0.91994">
        <ele>245.75</ele>
        <time>2012-12-16T08:19:48Z</time>
      </trkpt>
      <trkpt lat="44.58652" lon="0.92003">
        <ele>244.79</ele>
        <time>2012-12-16T08:19:50Z</time>
      </trkpt>
      <trkpt lat="44.58636" lon="0.92043">
        <ele>240.95</ele>
        <time>2012-12-16T08:19:58Z</time>
      </trkpt>
      <trkpt lat="44.58624" lon="0.92072">
        <ele>239.02</ele>
        <time>2012-12-16T08:20:03Z</time>
      </trkpt>
      <trkpt lat="44.58605" lon="0.92093">
        <ele>239.02</ele>
        <time>2012-12-16T08:20:07Z</time>
      </trkpt>
      <trkpt lat="44.58572" lon="0.92125">
        <ele>240.47</ele>
        <time>2012-12-16T08:20:16Z</time>
      </trkpt>
      <trkpt lat="44.58579" lon="0.92153">
        <ele>240.47</ele>
        <time>2012-12-16T08:20:28Z</time>
      </trkpt>
      <trkpt lat="44.58594" lon="0.92196">
        <ele>240.95</ele>
        <time>2012-12-16T08:20:43Z</time>
      </trkpt>
      <trkpt lat="44.5861" lon="0.92253">
        <ele>242.87</ele>
        <time>2012-12-16T08:20:56Z</time>
      </trkpt>
      <trkpt lat="44.58632" lon="0.92344">
        <ele>245.75</ele>
        <time>2012-12-16T08:21:13Z</time>
      </trkpt>
      <trkpt lat="44.58647" lon="0.92422">
        <ele>244.79</ele>
        <time>2012-12-16T08:21:28Z</time>
      </trkpt>
      <trkpt lat="44.58659" lon="0.92489">
        <ele>240.95</ele>
        <time>2012-12-16T08:21:38Z</time>
      </trkpt>
      <trkpt lat="44.58663" lon="0.92523">
        <ele>238.54</ele>
        <time>2012-12-16T08:21:46Z</time>
      </trkpt>
      <trkpt lat="44.58651" lon="0.92526">
        <ele>239.02</ele>
        <time>2012-12-16T08:21:54Z</time>
      </trkpt>
      <trkpt lat="44.58625" lon="0.92514">
        <ele>239.99</ele>
        <time>2012-12-16T08:22:09Z</time>
      </trkpt>
      <trkpt lat="44.58577" lon="0.92493">
        <ele>240.47</ele>
        <time>2012-12-16T08:22:23Z</time>
      </trkpt>
      <trkpt lat="44.58526" lon="0.92486">
        <ele>239.02</ele>
        <time>2012-12-16T08:22:35Z</time>
      </trkpt>
      <trkpt lat="44.58445" lon="0.92478">
        <ele>239.02</ele>
        <time>2012-12-16T08:22:51Z</time>
      </trkpt>
      <trkpt lat="44.58361" lon="0.92471">
        <ele>238.06</ele>
        <time>2012-12-16T08:23:06Z</time>
      </trkpt>
      <trkpt lat="44.583" lon="0.92474">
        <ele>238.54</ele>
        <time>2012-12-16T08:23:17Z</time>
      </trkpt>
      <trkpt lat="44.58236" lon="0.92501">
        <ele>239.99</ele>
        <time>2012-12-16T08:23:32Z</time>
      </trkpt>
      <trkpt lat="44.5823" lon="0.92502">
        <ele>239.51</ele>
        <time>2012-12-16T08:23:35Z</time>
      </trkpt>
      <trkpt lat="44.58228" lon="0.92508">
        <ele>239.51</ele>
        <time>2012-12-16T08:23:45Z</time>
      </trkpt>
      <trkpt lat="44.58228" lon="0.92509">
        <ele>239.51</ele>
        <time>2012-12-16T08:23:46Z</time>
      </trkpt>
      <trkpt lat="44.58231" lon="0.92525">
        <ele>239.02</ele>
        <time>2012-12-16T08:23:58Z</time>
      </trkpt>
      <trkpt lat="44.58235" lon="0.92567">
        <ele>239.51</ele>
        <time>2012-12-16T08:24:10Z</time>
      </trkpt>
      <trkpt lat="44.58243" lon="0.92607">
        <ele>237.58</ele>
        <time>2012-12-16T08:24:22Z</time>
      </trkpt>
      <trkpt lat="44.58247" lon="0.92624">
        <ele>237.1</ele>
        <time>2012-12-16T08:24:26Z</time>
      </trkpt>
      <trkpt lat="44.58251" lon="0.9264">
        <ele>236.62</ele>
        <time>2012-12-16T08:24:29Z</time>
      </trkpt>
      <trkpt lat="44.58252" lon="0.92671">
        <ele>235.18</ele>
        <time>2012-12-16T08:24:35Z</time>
      </trkpt>
      <trkpt lat="44.58253" lon="0.9269">
        <ele>233.74</ele>
        <time>2012-12-16T08:24:38Z</time>
      </trkpt>
      <trkpt lat="44.58254" lon="0.92719">
        <ele>230.85</ele>
        <time>2012-12-16T08:24:43Z</time>
      </trkpt>
      <trkpt lat="44.58252" lon="0.92738">
        <ele>228.45</ele>
        <time>2012-12-16T08:24:47Z</time>
      </trkpt>
      <trkpt lat="44.5825" lon="0.92779">
        <ele>224.12</ele>
        <time>2012-12-16T08:24:54Z</time>
      </trkpt>
      <trkpt lat="44.58257" lon="0.9283">
        <ele>220.76</ele>
        <time>2012-12-16T08:25:05Z</time>
      </trkpt>
      <trkpt lat="44.58257" lon="0.92834">
        <ele>220.28</ele>
        <time>2012-12-16T08:25:07Z</time>
      </trkpt>
      <trkpt lat="44.58254" lon="0.92842">
        <ele>217.88</ele>
        <time>2012-12-16T08:25:22Z</time>
      </trkpt>
      <trkpt lat="44.58255" lon="0.92842">
        <ele>222.2</ele>
        <time>2012-12-16T08:25:43Z</time>
      </trkpt>
      <trkpt lat="44.58255" lon="0.92844">
        <ele>227.01</ele>
        <time>2012-12-16T08:26:15Z</time>
      </trkpt>
      <trkpt lat="44.58233" lon="0.92856">
        <ele>224.61</ele>
        <time>2012-12-16T08:26:27Z</time>
      </trkpt>
      <trkpt lat="44.58204" lon="0.92864">
        <ele>224.61</ele>
        <time>2012-12-16T08:26:37Z</time>
      </trkpt>
      <trkpt lat="44.58169" lon="0.92875">
        <ele>222.68</ele>
        <time>2012-12-16T08:26:48Z</time>
      </trkpt>
      <trkpt lat="44.58147" lon="0.9288">
        <ele>220.76</ele>
        <time>2012-12-16T08:26:53Z</time>
      </trkpt>
      <trkpt lat="44.58133" lon="0.92879">
        <ele>219.32</ele>
        <time>2012-12-16T08:26:56Z</time>
      </trkpt>
      <trkpt lat="44.58123" lon="0.92892">
        <ele>216.91</ele>
        <time>2012-12-16T08:27:02Z</time>
      </trkpt>
      <trkpt lat="44.58117" lon="0.92929">
        <ele>211.63</ele>
        <time>2012-12-16T08:27:15Z</time>
      </trkpt>
      <trkpt lat="44.58117" lon="0.9296">
        <ele>210.19</ele>
        <time>2012-12-16T08:27:22Z</time>
      </trkpt>
      <trkpt lat="44.58108" lon="0.92981">
        <ele>206.82</ele>
        <time>2012-12-16T08:27:27Z</time>
      </trkpt>
      <trkpt lat="44.58112" lon="0.93017">
        <ele>202.98</ele>
        <time>2012-12-16T08:27:37Z</time>
      </trkpt>
      <trkpt lat="44.58111" lon="0.93023">
        <ele>200.57</ele>
        <time>2012-12-16T08:27:53Z</time>
      </trkpt>
      <trkpt lat="44.58111" lon="0.93031">
        <ele>204.42</ele>
        <time>2012-12-16T08:28:07Z</time>
      </trkpt>
      <trkpt lat="44.58114" lon="0.93035">
        <ele>205.38</ele>
        <time>2012-12-16T08:28:20Z</time>
      </trkpt>
      <trkpt lat="44.58119" lon="0.93045">
        <ele>206.34</ele>
        <time>2012-12-16T08:28:34Z</time>
      </trkpt>
      <trkpt lat="44.58122" lon="0.93065">
        <ele>203.94</ele>
        <time>2012-12-16T08:28:40Z</time>
      </trkpt>
      <trkpt lat="44.58126" lon="0.93122">
        <ele>197.21</ele>
        <time>2012-12-16T08:28:51Z</time>
      </trkpt>
      <trkpt lat="44.58127" lon="0.93142">
        <ele>194.8</ele>
        <time>2012-12-16T08:28:55Z</time>
      </trkpt>
      <trkpt lat="44.58141" lon="0.93183">
        <ele>191.92</ele>
        <time>2012-12-16T08:29:05Z</time>
      </trkpt>
      <trkpt lat="44.58141" lon="0.93239">
        <ele>187.11</ele>
        <time>2012-12-16T08:29:14Z</time>
      </trkpt>
      <trkpt lat="44.58141" lon="0.93244">
        <ele>186.63</ele>
        <time>2012-12-16T08:29:15Z</time>
      </trkpt>
      <trkpt lat="44.58137" lon="0.93265">
        <ele>185.67</ele>
        <time>2012-12-16T08:29:24Z</time>
      </trkpt>
      <trkpt lat="44.58131" lon="0.93275">
        <ele>187.59</ele>
        <time>2012-12-16T08:29:29Z</time>
      </trkpt>
      <trkpt lat="44.58127" lon="0.93281">
        <ele>189.52</ele>
        <time>2012-12-16T08:29:32Z</time>
      </trkpt>
      <trkpt lat="44.58126" lon="0.93302">
        <ele>197.21</ele>
        <time>2012-12-16T08:29:43Z</time>
      </trkpt>
      <trkpt lat="44.58127" lon="0.9332">
        <ele>202.01</ele>
        <time>2012-12-16T08:29:50Z</time>
      </trkpt>
      <trkpt lat="44.5812" lon="0.93338">
        <ele>203.46</ele>
        <time>2012-12-16T08:30:02Z</time>
      </trkpt>
      <trkpt lat="44.58116" lon="0.93348">
        <ele>204.9</ele>
        <time>2012-12-16T08:30:09Z</time>
      </trkpt>
      <trkpt lat="44.58104" lon="0.93361">
        <ele>210.19</ele>
        <time>2012-12-16T08:30:23Z</time>
      </trkpt>
      <trkpt lat="44.58103" lon="0.9336">
        <ele>208.74</ele>
        <time>2012-12-16T08:30:46Z</time>
      </trkpt>
      <trkpt lat="44.58101" lon="0.9336">
        <ele>207.78</ele>
        <time>2012-12-16T08:31:16Z</time>
      </trkpt>
      <trkpt lat="44.581" lon="0.93361">
        <ele>207.78</ele>
        <time>2012-12-16T08:31:49Z</time>
      </trkpt>
      <trkpt lat="44.58099" lon="0.93363">
        <ele>207.3</ele>
        <time>2012-12-16T08:32:13Z</time>
      </trkpt>
      <trkpt lat="44.58083" lon="0.93401">
        <ele>201.05</ele>
        <time>2012-12-16T08:32:27Z</time>
      </trkpt>
      <trkpt lat="44.58064" lon="0.93441">
        <ele>202.98</ele>
        <time>2012-12-16T08:32:40Z</time>
      </trkpt>
      <trkpt lat="44.5804" lon="0.93457">
        <ele>206.82</ele>
        <time>2012-12-16T08:32:51Z</time>
      </trkpt>
      <trkpt lat="44.58025" lon="0.93462">
        <ele>209.22</ele>
        <time>2012-12-16T08:33:00Z</time>
      </trkpt>
      <trkpt lat="44.58021" lon="0.93463">
        <ele>211.63</ele>
        <time>2012-12-16T08:33:17Z</time>
      </trkpt>
      <trkpt lat="44.58018" lon="0.93463">
        <ele>211.63</ele>
        <time>2012-12-16T08:33:23Z</time>
      </trkpt>
      <trkpt lat="44.58011" lon="0.93465">
        <ele>211.15</ele>
        <time>2012-12-16T08:33:27Z</time>
      </trkpt>
      <trkpt lat="44.57986" lon="0.93457">
        <ele>205.38</ele>
        <time>2012-12-16T08:33:37Z</time>
      </trkpt>
      <trkpt lat="44.57955" lon="0.93434">
        <ele>201.53</ele>
        <time>2012-12-16T08:33:46Z</time>
      </trkpt>
      <trkpt lat="44.57949" lon="0.93432">
        <ele>201.05</ele>
        <time>2012-12-16T08:33:48Z</time>
      </trkpt>
      <trkpt lat="44.57927" lon="0.93413">
        <ele>196.73</ele>
        <time>2012-12-16T08:33:56Z</time>
      </trkpt>
      <trkpt lat="44.57917" lon="0.93416">
        <ele>191.92</ele>
        <time>2012-12-16T08:34:06Z</time>
      </trkpt>
      <trkpt lat="44.57912" lon="0.93414">
        <ele>190.96</ele>
        <time>2012-12-16T08:34:35Z</time>
      </trkpt>
      <trkpt lat="44.57911" lon="0.93419">
        <ele>193.84</ele>
        <time>2012-12-16T08:34:57Z</time>
      </trkpt>
      <trkpt lat="44.57911" lon="0.93417">
        <ele>194.32</ele>
        <time>2012-12-16T08:35:18Z</time>
      </trkpt>
      <trkpt lat="44.57914" lon="0.9342">
        <ele>194.32</ele>
        <time>2012-12-16T08:35:31Z</time>
      </trkpt>
      <trkpt lat="44.57912" lon="0.93419">
        <ele>196.25</ele>
        <time>2012-12-16T08:35:53Z</time>
      </trkpt>
      <trkpt lat="44.57914" lon="0.93422">
        <ele>191.92</ele>
        <time>2012-12-16T08:36:17Z</time>
      </trkpt>
      <trkpt lat="44.57915" lon="0.93422">
        <ele>197.21</ele>
        <time>2012-12-16T08:36:44Z</time>
      </trkpt>
      <trkpt lat="44.57909" lon="0.93421">
        <ele>198.17</ele>
        <time>2012-12-16T08:37:09Z</time>
      </trkpt>
      <trkpt lat="44.57912" lon="0.9342">
        <ele>198.17</ele>
        <time>2012-12-16T08:37:27Z</time>
      </trkpt>
      <trkpt lat="44.57911" lon="0.93425">
        <ele>197.69</ele>
        <time>2012-12-16T08:37:38Z</time>
      </trkpt>
      <trkpt lat="44.57916" lon="0.93454">
        <ele>189.52</ele>
        <time>2012-12-16T08:37:47Z</time>
      </trkpt>
      <trkpt lat="44.57919" lon="0.93458">
        <ele>186.15</ele>
        <time>2012-12-16T08:37:59Z</time>
      </trkpt>
      <trkpt lat="44.57921" lon="0.93467">
        <ele>184.23</ele>
        <time>2012-12-16T08:38:12Z</time>
      </trkpt>
      <trkpt lat="44.57918" lon="0.93492">
        <ele>180.38</ele>
        <time>2012-12-16T08:38:21Z</time>
      </trkpt>
      <trkpt lat="44.57904" lon="0.9353">
        <ele>179.9</ele>
        <time>2012-12-16T08:38:34Z</time>
      </trkpt>
      <trkpt lat="44.57904" lon="0.93538">
        <ele>180.38</ele>
        <time>2012-12-16T08:38:36Z</time>
      </trkpt>
      <trkpt lat="44.57898" lon="0.93564">
        <ele>182.31</ele>
        <time>2012-12-16T08:38:42Z</time>
      </trkpt>
      <trkpt lat="44.57891" lon="0.93578">
        <ele>183.75</ele>
        <time>2012-12-16T08:38:46Z</time>
      </trkpt>
      <trkpt lat="44.57895" lon="0.93597">
        <ele>184.71</ele>
        <time>2012-12-16T08:38:52Z</time>
      </trkpt>
      <trkpt lat="44.57925" lon="0.93636">
        <ele>184.23</ele>
        <time>2012-12-16T08:39:04Z</time>
      </trkpt>
      <trkpt lat="44.57944" lon="0.93676">
        <ele>186.15</ele>
        <time>2012-12-16T08:39:15Z</time>
      </trkpt>
      <trkpt lat="44.57944" lon="0.93713">
        <ele>187.59</ele>
        <time>2012-12-16T08:39:27Z</time>
      </trkpt>
      <trkpt lat="44.5794" lon="0.93764">
        <ele>187.11</ele>
        <time>2012-12-16T08:39:43Z</time>
      </trkpt>
      <trkpt lat="44.57939" lon="0.9383">
        <ele>191.44</ele>
        <time>2012-12-16T08:40:02Z</time>
      </trkpt>
      <trkpt lat="44.57929" lon="0.93882">
        <ele>194.32</ele>
        <time>2012-12-16T08:40:16Z</time>
      </trkpt>
      <trkpt lat="44.57903" lon="0.93953">
        <ele>195.77</ele>
        <time>2012-12-16T08:40:34Z</time>
      </trkpt>
      <trkpt lat="44.57897" lon="0.93965">
        <ele>196.25</ele>
        <time>2012-12-16T08:40:39Z</time>
      </trkpt>
      <trkpt lat="44.57883" lon="0.93974">
        <ele>198.65</ele>
        <time>2012-12-16T08:40:53Z</time>
      </trkpt>
      <trkpt lat="44.57878" lon="0.93976">
        <ele>199.13</ele>
        <time>2012-12-16T08:41:06Z</time>
      </trkpt>
      <trkpt lat="44.57877" lon="0.93978">
        <ele>200.09</ele>
        <time>2012-12-16T08:41:25Z</time>
      </trkpt>
      <trkpt lat="44.57877" lon="0.93975">
        <ele>200.57</ele>
        <time>2012-12-16T08:41:45Z</time>
      </trkpt>
      <trkpt lat="44.57877" lon="0.93975">
        <ele>200.57</ele>
        <time>2012-12-16T08:42:11Z</time>
      </trkpt>
      <trkpt lat="44.57876" lon="0.93973">
        <ele>202.01</ele>
        <time>2012-12-16T08:42:32Z</time>
      </trkpt>
      <trkpt lat="44.57878" lon="0.93976">
        <ele>201.05</ele>
        <time>2012-12-16T08:42:58Z</time>
      </trkpt>
      <trkpt lat="44.57877" lon="0.93976">
        <ele>202.49</ele>
        <time>2012-12-16T08:43:15Z</time>
      </trkpt>
      <trkpt lat="44.57872" lon="0.93978">
        <ele>202.49</ele>
        <time>2012-12-16T08:43:28Z</time>
      </trkpt>
      <trkpt lat="44.57871" lon="0.93977">
        <ele>200.09</ele>
        <time>2012-12-16T08:43:43Z</time>
      </trkpt>
      <trkpt lat="44.57871" lon="0.93978">
        <ele>202.49</ele>
        <time>2012-12-16T08:44:04Z</time>
      </trkpt>
      <trkpt lat="44.5787" lon="0.9398">
        <ele>202.49</ele>
        <time>2012-12-16T08:44:06Z</time>
      </trkpt>
      <trkpt lat="44.57868" lon="0.93981">
        <ele>202.49</ele>
        <time>2012-12-16T08:44:08Z</time>
      </trkpt>
      <trkpt lat="44.57851" lon="0.93989">
        <ele>203.94</ele>
        <time>2012-12-16T08:44:22Z</time>
      </trkpt>
      <trkpt lat="44.57848" lon="0.94004">
        <ele>203.46</ele>
        <time>2012-12-16T08:44:34Z</time>
      </trkpt>
      <trkpt lat="44.57852" lon="0.94012">
        <ele>202.49</ele>
        <time>2012-12-16T08:44:38Z</time>
      </trkpt>
      <trkpt lat="44.57874" lon="0.9405">
        <ele>198.17</ele>
        <time>2012-12-16T08:44:47Z</time>
      </trkpt>
      <trkpt lat="44.57875" lon="0.94074">
        <ele>194.8</ele>
        <time>2012-12-16T08:44:51Z</time>
      </trkpt>
      <trkpt lat="44.57854" lon="0.94106">
        <ele>191.92</ele>
        <time>2012-12-16T08:44:57Z</time>
      </trkpt>
      <trkpt lat="44.57823" lon="0.94123">
        <ele>189.52</ele>
        <time>2012-12-16T08:45:02Z</time>
      </trkpt>
      <trkpt lat="44.57771" lon="0.94185">
        <ele>184.71</ele>
        <time>2012-12-16T08:45:11Z</time>
      </trkpt>
      <trkpt lat="44.57738" lon="0.94199">
        <ele>179.9</ele>
        <time>2012-12-16T08:45:17Z</time>
      </trkpt>
      <trkpt lat="44.5772" lon="0.94193">
        <ele>178.46</ele>
        <time>2012-12-16T08:45:20Z</time>
      </trkpt>
      <trkpt lat="44.57681" lon="0.94195">
        <ele>176.54</ele>
        <time>2012-12-16T08:45:26Z</time>
      </trkpt>
      <trkpt lat="44.57659" lon="0.94189">
        <ele>176.06</ele>
        <time>2012-12-16T08:45:30Z</time>
      </trkpt>
      <trkpt lat="44.57633" lon="0.94194">
        <ele>172.21</ele>
        <time>2012-12-16T08:45:38Z</time>
      </trkpt>
      <trkpt lat="44.57642" lon="0.94211">
        <ele>171.25</ele>
        <time>2012-12-16T08:45:43Z</time>
      </trkpt>
      <trkpt lat="44.5765" lon="0.94235">
        <ele>170.29</ele>
        <time>2012-12-16T08:45:47Z</time>
      </trkpt>
      <trkpt lat="44.57651" lon="0.94283">
        <ele>169.81</ele>
        <time>2012-12-16T08:45:54Z</time>
      </trkpt>
      <trkpt lat="44.57645" lon="0.94299">
        <ele>168.85</ele>
        <time>2012-12-16T08:45:57Z</time>
      </trkpt>
      <trkpt lat="44.57633" lon="0.94322">
        <ele>166.45</ele>
        <time>2012-12-16T08:46:01Z</time>
      </trkpt>
      <trkpt lat="44.57621" lon="0.94353">
        <ele>162.12</ele>
        <time>2012-12-16T08:46:06Z</time>
      </trkpt>
      <trkpt lat="44.57618" lon="0.94368">
        <ele>160.2</ele>
        <time>2012-12-16T08:46:08Z</time>
      </trkpt>
      <trkpt lat="44.57616" lon="0.94407">
        <ele>156.83</ele>
        <time>2012-12-16T08:46:13Z</time>
      </trkpt>
      <trkpt lat="44.57618" lon="0.94423">
        <ele>154.91</ele>
        <time>2012-12-16T08:46:15Z</time>
      </trkpt>
      <trkpt lat="44.57618" lon="0.94463">
        <ele>150.58</ele>
        <time>2012-12-16T08:46:21Z</time>
      </trkpt>
      <trkpt lat="44.57615" lon="0.94481">
        <ele>147.7</ele>
        <time>2012-12-16T08:46:24Z</time>
      </trkpt>
      <trkpt lat="44.57604" lon="0.94506">
        <ele>142.89</ele>
        <time>2012-12-16T08:46:30Z</time>
      </trkpt>
      <trkpt lat="44.57612" lon="0.94516">
        <ele>140.49</ele>
        <time>2012-12-16T08:46:34Z</time>
      </trkpt>
      <trkpt lat="44.57624" lon="0.94523">
        <ele>137.13</ele>
        <time>2012-12-16T08:46:38Z</time>
      </trkpt>
      <trkpt lat="44.57623" lon="0.94534">
        <ele>134.72</ele>
        <time>2012-12-16T08:46:42Z</time>
      </trkpt>
      <trkpt lat="44.57599" lon="0.94566">
        <ele>127.99</ele>
        <time>2012-12-16T08:46:49Z</time>
      </trkpt>
      <trkpt lat="44.57587" lon="0.94583">
        <ele>125.11</ele>
        <time>2012-12-16T08:46:52Z</time>
      </trkpt>
      <trkpt lat="44.57571" lon="0.94611">
        <ele>121.74</ele>
        <time>2012-12-16T08:46:57Z</time>
      </trkpt>
      <trkpt lat="44.57576" lon="0.94636">
        <ele>119.82</ele>
        <time>2012-12-16T08:47:02Z</time>
      </trkpt>
      <trkpt lat="44.5758" lon="0.94641">
        <ele>119.82</ele>
        <time>2012-12-16T08:47:04Z</time>
      </trkpt>
      <trkpt lat="44.57588" lon="0.94655">
        <ele>119.34</ele>
        <time>2012-12-16T08:47:08Z</time>
      </trkpt>
      <trkpt lat="44.57593" lon="0.94668">
        <ele>118.86</ele>
        <time>2012-12-16T08:47:11Z</time>
      </trkpt>
      <trkpt lat="44.57604" lon="0.94687">
        <ele>117.9</ele>
        <time>2012-12-16T08:47:15Z</time>
      </trkpt>
      <trkpt lat="44.57618" lon="0.94711">
        <ele>116.46</ele>
        <time>2012-12-16T08:47:19Z</time>
      </trkpt>
      <trkpt lat="44.57619" lon="0.94753">
        <ele>115.5</ele>
        <time>2012-12-16T08:47:26Z</time>
      </trkpt>
      <trkpt lat="44.57609" lon="0.9478">
        <ele>114.05</ele>
        <time>2012-12-16T08:47:32Z</time>
      </trkpt>
      <trkpt lat="44.57605" lon="0.94799">
        <ele>114.05</ele>
        <time>2012-12-16T08:47:37Z</time>
      </trkpt>
      <trkpt lat="44.57604" lon="0.94819">
        <ele>114.53</ele>
        <time>2012-12-16T08:47:41Z</time>
      </trkpt>
      <trkpt lat="44.57597" lon="0.94854">
        <ele>114.05</ele>
        <time>2012-12-16T08:47:47Z</time>
      </trkpt>
      <trkpt lat="44.57585" lon="0.94945">
        <ele>112.13</ele>
        <time>2012-12-16T08:48:00Z</time>
      </trkpt>
      <trkpt lat="44.57584" lon="0.94951">
        <ele>112.13</ele>
        <time>2012-12-16T08:48:01Z</time>
      </trkpt>
      <trkpt lat="44.57576" lon="0.95026">
        <ele>111.65</ele>
        <time>2012-12-16T08:48:12Z</time>
      </trkpt>
      <trkpt lat="44.57559" lon="0.95114">
        <ele>110.69</ele>
        <time>2012-12-16T08:48:27Z</time>
      </trkpt>
      <trkpt lat="44.57552" lon="0.95142">
        <ele>109.73</ele>
        <time>2012-12-16T08:48:32Z</time>
      </trkpt>
      <trkpt lat="44.57547" lon="0.95183">
        <ele>110.21</ele>
        <time>2012-12-16T08:48:38Z</time>
      </trkpt>
      <trkpt lat="44.57516" lon="0.9528">
        <ele>109.25</ele>
        <time>2012-12-16T08:48:51Z</time>
      </trkpt>
      <trkpt lat="44.57475" lon="0.95373">
        <ele>103.96</ele>
        <time>2012-12-16T08:49:02Z</time>
      </trkpt>
      <trkpt lat="44.57459" lon="0.954">
        <ele>101.56</ele>
        <time>2012-12-16T08:49:06Z</time>
      </trkpt>
      <trkpt lat="44.5745" lon="0.9541">
        <ele>101.08</ele>
        <time>2012-12-16T08:49:08Z</time>
      </trkpt>
      <trkpt lat="44.57416" lon="0.95444">
        <ele>101.08</ele>
        <time>2012-12-16T08:49:17Z</time>
      </trkpt>
      <trkpt lat="44.57396" lon="0.95457">
        <ele>103</ele>
        <time>2012-12-16T08:49:21Z</time>
      </trkpt>
      <trkpt lat="44.57377" lon="0.95468">
        <ele>103.96</ele>
        <time>2012-12-16T08:49:25Z</time>
      </trkpt>
      <trkpt lat="44.57354" lon="0.95478">
        <ele>104.92</ele>
        <time>2012-12-16T08:49:35Z</time>
      </trkpt>
      <trkpt lat="44.57352" lon="0.95479">
        <ele>103</ele>
        <time>2012-12-16T08:49:51Z</time>
      </trkpt>
      <trkpt lat="44.57353" lon="0.95478">
        <ele>102.04</ele>
        <time>2012-12-16T08:50:11Z</time>
      </trkpt>
      <trkpt lat="44.57352" lon="0.95479">
        <ele>102.04</ele>
        <time>2012-12-16T08:50:28Z</time>
      </trkpt>
      <trkpt lat="44.57352" lon="0.9548">
        <ele>103</ele>
        <time>2012-12-16T08:50:45Z</time>
      </trkpt>
      <trkpt lat="44.57352" lon="0.9548">
        <ele>103</ele>
        <time>2012-12-16T08:51:01Z</time>
      </trkpt>
      <trkpt lat="44.57352" lon="0.95481">
        <ele>103.96</ele>
        <time>2012-12-16T08:51:18Z</time>
      </trkpt>
      <trkpt lat="44.57352" lon="0.95481">
        <ele>104.92</ele>
        <time>2012-12-16T08:51:31Z</time>
      </trkpt>
      <trkpt lat="44.57352" lon="0.95483">
        <ele>104.44</ele>
        <time>2012-12-16T08:51:46Z</time>
      </trkpt>
      <trkpt lat="44.57352" lon="0.95483">
        <ele>104.44</ele>
        <time>2012-12-16T08:51:48Z</time>
      </trkpt>
      <trkpt lat="44.57372" lon="0.955">
        <ele>103.48</ele>
        <time>2012-12-16T08:51:57Z</time>
      </trkpt>
      <trkpt lat="44.57445" lon="0.95542">
        <ele>103</ele>
        <time>2012-12-16T08:52:13Z</time>
      </trkpt>
      <trkpt lat="44.57524" lon="0.95635">
        <ele>102.04</ele>
        <time>2012-12-16T08:52:30Z</time>
      </trkpt>
      <trkpt lat="44.57626" lon="0.95769">
        <ele>101.08</ele>
        <time>2012-12-16T08:52:51Z</time>
      </trkpt>
      <trkpt lat="44.57689" lon="0.95858">
        <ele>101.56</ele>
        <time>2012-12-16T08:53:07Z</time>
      </trkpt>
      <trkpt lat="44.57739" lon="0.95984">
        <ele>104.44</ele>
        <time>2012-12-16T08:53:25Z</time>
      </trkpt>
      <trkpt lat="44.57761" lon="0.96113">
        <ele>105.88</ele>
        <time>2012-12-16T08:53:41Z</time>
      </trkpt>
      <trkpt lat="44.57775" lon="0.96245">
        <ele>106.36</ele>
        <time>2012-12-16T08:53:57Z</time>
      </trkpt>
      <trkpt lat="44.57767" lon="0.96381">
        <ele>108.29</ele>
        <time>2012-12-16T08:54:14Z</time>
      </trkpt>
      <trkpt lat="44.57749" lon="0.96535">
        <ele>110.69</ele>
        <time>2012-12-16T08:54:33Z</time>
      </trkpt>
      <trkpt lat="44.57732" lon="0.9666">
        <ele>111.65</ele>
        <time>2012-12-16T08:54:48Z</time>
      </trkpt>
      <trkpt lat="44.57714" lon="0.96774">
        <ele>110.21</ele>
        <time>2012-12-16T08:55:03Z</time>
      </trkpt>
      <trkpt lat="44.57716" lon="0.96911">
        <ele>106.36</ele>
        <time>2012-12-16T08:55:18Z</time>
      </trkpt>
      <trkpt lat="44.57718" lon="0.96984">
        <ele>103.48</ele>
        <time>2012-12-16T08:55:27Z</time>
      </trkpt>
      <trkpt lat="44.57746" lon="0.96996">
        <ele>103.96</ele>
        <time>2012-12-16T08:55:36Z</time>
      </trkpt>
      <trkpt lat="44.57785" lon="0.97018">
        <ele>105.88</ele>
        <time>2012-12-16T08:55:48Z</time>
      </trkpt>
      <trkpt lat="44.57839" lon="0.97045">
        <ele>105.4</ele>
        <time>2012-12-16T08:56:05Z</time>
      </trkpt>
      <trkpt lat="44.57887" lon="0.97056">
        <ele>106.36</ele>
        <time>2012-12-16T08:56:19Z</time>
      </trkpt>
      <trkpt lat="44.57925" lon="0.97087">
        <ele>105.88</ele>
        <time>2012-12-16T08:56:32Z</time>
      </trkpt>
      <trkpt lat="44.57954" lon="0.97121">
        <ele>104.44</ele>
        <time>2012-12-16T08:56:44Z</time>
      </trkpt>
      <trkpt lat="44.57973" lon="0.97124">
        <ele>106.84</ele>
        <time>2012-12-16T08:56:54Z</time>
      </trkpt>
      <trkpt lat="44.58005" lon="0.97133">
        <ele>106.36</ele>
        <time>2012-12-16T08:57:08Z</time>
      </trkpt>
      <trkpt lat="44.5804" lon="0.97147">
        <ele>105.4</ele>
        <time>2012-12-16T08:57:22Z</time>
      </trkpt>
      <trkpt lat="44.58068" lon="0.97157">
        <ele>107.32</ele>
        <time>2012-12-16T08:57:33Z</time>
      </trkpt>
      <trkpt lat="44.58085" lon="0.97159">
        <ele>108.29</ele>
        <time>2012-12-16T08:57:42Z</time>
      </trkpt>
      <trkpt lat="44.58117" lon="0.97155">
        <ele>107.81</ele>
        <time>2012-12-16T08:57:55Z</time>
      </trkpt>
      <trkpt lat="44.58152" lon="0.97151">
        <ele>108.77</ele>
        <time>2012-12-16T08:58:07Z</time>
      </trkpt>
      <trkpt lat="44.58184" lon="0.97149">
        <ele>108.29</ele>
        <time>2012-12-16T08:58:18Z</time>
      </trkpt>
      <trkpt lat="44.58218" lon="0.97143">
        <ele>107.81</ele>
        <time>2012-12-16T08:58:29Z</time>
      </trkpt>
      <trkpt lat="44.58246" lon="0.97142">
        <ele>107.81</ele>
        <time>2012-12-16T08:58:39Z</time>
      </trkpt>
      <trkpt lat="44.58252" lon="0.97155">
        <ele>108.29</ele>
        <time>2012-12-16T08:58:44Z</time>
      </trkpt>
      <trkpt lat="44.58262" lon="0.97222">
        <ele>111.17</ele>
        <time>2012-12-16T08:59:01Z</time>
      </trkpt>
      <trkpt lat="44.58262" lon="0.97259">
        <ele>113.57</ele>
        <time>2012-12-16T08:59:10Z</time>
      </trkpt>
      <trkpt lat="44.58265" lon="0.97264">
        <ele>114.53</ele>
        <time>2012-12-16T08:59:13Z</time>
      </trkpt>
      <trkpt lat="44.58276" lon="0.97263">
        <ele>115.01</ele>
        <time>2012-12-16T08:59:19Z</time>
      </trkpt>
      <trkpt lat="44.58288" lon="0.97262">
        <ele>115.98</ele>
        <time>2012-12-16T08:59:27Z</time>
      </trkpt>
      <trkpt lat="44.58304" lon="0.97261">
        <ele>115.5</ele>
        <time>2012-12-16T08:59:38Z</time>
      </trkpt>
      <trkpt lat="44.58342" lon="0.97258">
        <ele>115.01</ele>
        <time>2012-12-16T08:59:55Z</time>
      </trkpt>
      <trkpt lat="44.58369" lon="0.97258">
        <ele>114.53</ele>
        <time>2012-12-16T09:00:08Z</time>
      </trkpt>
      <trkpt lat="44.58406" lon="0.97253">
        <ele>113.09</ele>
        <time>2012-12-16T09:00:24Z</time>
      </trkpt>
      <trkpt lat="44.5845" lon="0.97243">
        <ele>112.13</ele>
        <time>2012-12-16T09:00:41Z</time>
      </trkpt>
      <trkpt lat="44.58494" lon="0.97229">
        <ele>112.13</ele>
        <time>2012-12-16T09:00:54Z</time>
      </trkpt>
      <trkpt lat="44.5855" lon="0.97202">
        <ele>113.09</ele>
        <time>2012-12-16T09:01:10Z</time>
      </trkpt>
      <trkpt lat="44.58634" lon="0.97168">
        <ele>112.61</ele>
        <time>2012-12-16T09:01:30Z</time>
      </trkpt>
      <trkpt lat="44.587" lon="0.97153">
        <ele>115.01</ele>
        <time>2012-12-16T09:01:47Z</time>
      </trkpt>
      <trkpt lat="44.58734" lon="0.97146">
        <ele>115.5</ele>
        <time>2012-12-16T09:01:58Z</time>
      </trkpt>
      <trkpt lat="44.58738" lon="0.97161">
        <ele>116.46</ele>
        <time>2012-12-16T09:02:03Z</time>
      </trkpt>
      <trkpt lat="44.58732" lon="0.97197">
        <ele>118.86</ele>
        <time>2012-12-16T09:02:15Z</time>
      </trkpt>
      <trkpt lat="44.58723" lon="0.97213">
        <ele>121.26</ele>
        <time>2012-12-16T09:02:23Z</time>
      </trkpt>
      <trkpt lat="44.58694" lon="0.97219">
        <ele>127.03</ele>
        <time>2012-12-16T09:02:38Z</time>
      </trkpt>
      <trkpt lat="44.58675" lon="0.97249">
        <ele>129.92</ele>
        <time>2012-12-16T09:02:52Z</time>
      </trkpt>
      <trkpt lat="44.58663" lon="0.97281">
        <ele>131.36</ele>
        <time>2012-12-16T09:03:05Z</time>
      </trkpt>
      <trkpt lat="44.58648" lon="0.97315">
        <ele>133.28</ele>
        <time>2012-12-16T09:03:20Z</time>
      </trkpt>
      <trkpt lat="44.58636" lon="0.9733">
        <ele>135.2</ele>
        <time>2012-12-16T09:03:29Z</time>
      </trkpt>
      <trkpt lat="44.58633" lon="0.97334">
        <ele>136.16</ele>
        <time>2012-12-16T09:03:32Z</time>
      </trkpt>
      <trkpt lat="44.58623" lon="0.97341">
        <ele>137.61</ele>
        <time>2012-12-16T09:03:39Z</time>
      </trkpt>
      <trkpt lat="44.58606" lon="0.97375">
        <ele>143.37</ele>
        <time>2012-12-16T09:03:56Z</time>
      </trkpt>
      <trkpt lat="44.58596" lon="0.9739">
        <ele>144.34</ele>
        <time>2012-12-16T09:04:05Z</time>
      </trkpt>
      <trkpt lat="44.58591" lon="0.97402">
        <ele>145.3</ele>
        <time>2012-12-16T09:04:11Z</time>
      </trkpt>
      <trkpt lat="44.58577" lon="0.97436">
        <ele>152.99</ele>
        <time>2012-12-16T09:04:26Z</time>
      </trkpt>
      <trkpt lat="44.58562" lon="0.97464">
        <ele>157.79</ele>
        <time>2012-12-16T09:04:39Z</time>
      </trkpt>
      <trkpt lat="44.58542" lon="0.97501">
        <ele>160.2</ele>
        <time>2012-12-16T09:04:55Z</time>
      </trkpt>
      <trkpt lat="44.58522" lon="0.97536">
        <ele>163.56</ele>
        <time>2012-12-16T09:05:12Z</time>
      </trkpt>
      <trkpt lat="44.58509" lon="0.97564">
        <ele>165.96</ele>
        <time>2012-12-16T09:05:27Z</time>
      </trkpt>
      <trkpt lat="44.58508" lon="0.97567">
        <ele>166.45</ele>
        <time>2012-12-16T09:05:44Z</time>
      </trkpt>
      <trkpt lat="44.58509" lon="0.97567">
        <ele>165.96</ele>
        <time>2012-12-16T09:06:05Z</time>
      </trkpt>
      <trkpt lat="44.58508" lon="0.97567">
        <ele>165.96</ele>
        <time>2012-12-16T09:06:24Z</time>
      </trkpt>
      <trkpt lat="44.58508" lon="0.97568">
        <ele>166.45</ele>
        <time>2012-12-16T09:06:44Z</time>
      </trkpt>
      <trkpt lat="44.58509" lon="0.97568">
        <ele>165.48</ele>
        <time>2012-12-16T09:07:14Z</time>
      </trkpt>
      <trkpt lat="44.5851" lon="0.97567">
        <ele>165</ele>
        <time>2012-12-16T09:07:36Z</time>
      </trkpt>
      <trkpt lat="44.58509" lon="0.97568">
        <ele>165.48</ele>
        <time>2012-12-16T09:08:11Z</time>
      </trkpt>
      <trkpt lat="44.58508" lon="0.97566">
        <ele>165</ele>
        <time>2012-12-16T09:08:38Z</time>
      </trkpt>
      <trkpt lat="44.58508" lon="0.97566">
        <ele>165.96</ele>
        <time>2012-12-16T09:09:02Z</time>
      </trkpt>
      <trkpt lat="44.58509" lon="0.97566">
        <ele>165.96</ele>
        <time>2012-12-16T09:09:26Z</time>
      </trkpt>
      <trkpt lat="44.58511" lon="0.97567">
        <ele>165.96</ele>
        <time>2012-12-16T09:09:58Z</time>
      </trkpt>
      <trkpt lat="44.58509" lon="0.97566">
        <ele>165.48</ele>
        <time>2012-12-16T09:10:24Z</time>
      </trkpt>
      <trkpt lat="44.5851" lon="0.97569">
        <ele>165.96</ele>
        <time>2012-12-16T09:10:37Z</time>
      </trkpt>
      <trkpt lat="44.58513" lon="0.97578">
        <ele>167.41</ele>
        <time>2012-12-16T09:10:43Z</time>
      </trkpt>
      <trkpt lat="44.58512" lon="0.97603">
        <ele>170.77</ele>
        <time>2012-12-16T09:10:57Z</time>
      </trkpt>
      <trkpt lat="44.58509" lon="0.97632">
        <ele>173.17</ele>
        <time>2012-12-16T09:11:13Z</time>
      </trkpt>
      <trkpt lat="44.58507" lon="0.97657">
        <ele>176.54</ele>
        <time>2012-12-16T09:11:28Z</time>
      </trkpt>
      <trkpt lat="44.58504" lon="0.97686">
        <ele>179.9</ele>
        <time>2012-12-16T09:11:46Z</time>
      </trkpt>
      <trkpt lat="44.58501" lon="0.97708">
        <ele>181.35</ele>
        <time>2012-12-16T09:12:00Z</time>
      </trkpt>
      <trkpt lat="44.58498" lon="0.97735">
        <ele>183.75</ele>
        <time>2012-12-16T09:12:17Z</time>
      </trkpt>
      <trkpt lat="44.58496" lon="0.97759">
        <ele>186.15</ele>
        <time>2012-12-16T09:12:33Z</time>
      </trkpt>
      <trkpt lat="44.58496" lon="0.97781">
        <ele>187.11</ele>
        <time>2012-12-16T09:12:47Z</time>
      </trkpt>
      <trkpt lat="44.58495" lon="0.97797">
        <ele>188.56</ele>
        <time>2012-12-16T09:12:57Z</time>
      </trkpt>
      <trkpt lat="44.58491" lon="0.97817">
        <ele>189.04</ele>
        <time>2012-12-16T09:13:06Z</time>
      </trkpt>
      <trkpt lat="44.58492" lon="0.97821">
        <ele>185.67</ele>
        <time>2012-12-16T09:13:19Z</time>
      </trkpt>
      <trkpt lat="44.58493" lon="0.97824">
        <ele>185.19</ele>
        <time>2012-12-16T09:13:25Z</time>
      </trkpt>
      <trkpt lat="44.58495" lon="0.97837">
        <ele>185.19</ele>
        <time>2012-12-16T09:13:31Z</time>
      </trkpt>
      <trkpt lat="44.58507" lon="0.97905">
        <ele>182.31</ele>
        <time>2012-12-16T09:13:45Z</time>
      </trkpt>
      <trkpt lat="44.58505" lon="0.9792">
        <ele>180.87</ele>
        <time>2012-12-16T09:13:49Z</time>
      </trkpt>
      <trkpt lat="44.58535" lon="0.97945">
        <ele>180.87</ele>
        <time>2012-12-16T09:14:00Z</time>
      </trkpt>
      <trkpt lat="44.58605" lon="0.97982">
        <ele>183.75</ele>
        <time>2012-12-16T09:14:18Z</time>
      </trkpt>
      <trkpt lat="44.58611" lon="0.97988">
        <ele>184.23</ele>
        <time>2012-12-16T09:14:20Z</time>
      </trkpt>
      <trkpt lat="44.58635" lon="0.98028">
        <ele>186.63</ele>
        <time>2012-12-16T09:14:31Z</time>
      </trkpt>
      <trkpt lat="44.58657" lon="0.98084">
        <ele>188.56</ele>
        <time>2012-12-16T09:14:44Z</time>
      </trkpt>
      <trkpt lat="44.58666" lon="0.98119">
        <ele>189.52</ele>
        <time>2012-12-16T09:14:54Z</time>
      </trkpt>
      <trkpt lat="44.58674" lon="0.98152">
        <ele>188.08</ele>
        <time>2012-12-16T09:15:00Z</time>
      </trkpt>
      <trkpt lat="44.58689" lon="0.98182">
        <ele>186.15</ele>
        <time>2012-12-16T09:15:05Z</time>
      </trkpt>
      <trkpt lat="44.58708" lon="0.982">
        <ele>185.67</ele>
        <time>2012-12-16T09:15:09Z</time>
      </trkpt>
      <trkpt lat="44.58744" lon="0.98231">
        <ele>184.71</ele>
        <time>2012-12-16T09:15:17Z</time>
      </trkpt>
      <trkpt lat="44.58749" lon="0.98233">
        <ele>184.23</ele>
        <time>2012-12-16T09:15:18Z</time>
      </trkpt>
      <trkpt lat="44.58807" lon="0.98257">
        <ele>182.31</ele>
        <time>2012-12-16T09:15:27Z</time>
      </trkpt>
      <trkpt lat="44.58841" lon="0.98286">
        <ele>180.38</ele>
        <time>2012-12-16T09:15:33Z</time>
      </trkpt>
      <trkpt lat="44.58873" lon="0.98304">
        <ele>178.46</ele>
        <time>2012-12-16T09:15:38Z</time>
      </trkpt>
      <trkpt lat="44.58896" lon="0.98334">
        <ele>176.54</ele>
        <time>2012-12-16T09:15:46Z</time>
      </trkpt>
      <trkpt lat="44.58898" lon="0.98338">
        <ele>176.54</ele>
        <time>2012-12-16T09:15:47Z</time>
      </trkpt>
      <trkpt lat="44.58893" lon="0.98359">
        <ele>178.46</ele>
        <time>2012-12-16T09:15:53Z</time>
      </trkpt>
      <trkpt lat="44.5888" lon="0.98371">
        <ele>180.87</ele>
        <time>2012-12-16T09:16:04Z</time>
      </trkpt>
      <trkpt lat="44.58879" lon="0.98372">
        <ele>181.35</ele>
        <time>2012-12-16T09:16:17Z</time>
      </trkpt>
      <trkpt lat="44.58853" lon="0.98396">
        <ele>182.31</ele>
        <time>2012-12-16T09:16:30Z</time>
      </trkpt>
      <trkpt lat="44.58835" lon="0.98424">
        <ele>188.08</ele>
        <time>2012-12-16T09:16:40Z</time>
      </trkpt>
      <trkpt lat="44.58809" lon="0.98461">
        <ele>191.44</ele>
        <time>2012-12-16T09:16:52Z</time>
      </trkpt>
      <trkpt lat="44.58796" lon="0.98512">
        <ele>191.92</ele>
        <time>2012-12-16T09:17:04Z</time>
      </trkpt>
      <trkpt lat="44.58794" lon="0.98556">
        <ele>196.73</ele>
        <time>2012-12-16T09:17:16Z</time>
      </trkpt>
      <trkpt lat="44.58784" lon="0.986">
        <ele>195.28</ele>
        <time>2012-12-16T09:17:25Z</time>
      </trkpt>
      <trkpt lat="44.58764" lon="0.9867">
        <ele>190</ele>
        <time>2012-12-16T09:17:33Z</time>
      </trkpt>
      <trkpt lat="44.58749" lon="0.98689">
        <ele>189.04</ele>
        <time>2012-12-16T09:17:37Z</time>
      </trkpt>
      <trkpt lat="44.58727" lon="0.987">
        <ele>189.52</ele>
        <time>2012-12-16T09:17:42Z</time>
      </trkpt>
      <trkpt lat="44.58682" lon="0.98754">
        <ele>192.4</ele>
        <time>2012-12-16T09:17:59Z</time>
      </trkpt>
      <trkpt lat="44.58653" lon="0.98805">
        <ele>192.4</ele>
        <time>2012-12-16T09:18:12Z</time>
      </trkpt>
      <trkpt lat="44.58647" lon="0.98818">
        <ele>193.84</ele>
        <time>2012-12-16T09:18:22Z</time>
      </trkpt>
      <trkpt lat="44.58646" lon="0.98818">
        <ele>197.21</ele>
        <time>2012-12-16T09:18:46Z</time>
      </trkpt>
      <trkpt lat="44.58645" lon="0.98819">
        <ele>197.21</ele>
        <time>2012-12-16T09:19:02Z</time>
      </trkpt>
      <trkpt lat="44.58645" lon="0.98819">
        <ele>196.25</ele>
        <time>2012-12-16T09:19:28Z</time>
      </trkpt>
      <trkpt lat="44.58645" lon="0.98821">
        <ele>195.77</ele>
        <time>2012-12-16T09:19:50Z</time>
      </trkpt>
      <trkpt lat="44.58645" lon="0.98821">
        <ele>195.28</ele>
        <time>2012-12-16T09:20:17Z</time>
      </trkpt>
      <trkpt lat="44.58643" lon="0.98823">
        <ele>194.8</ele>
        <time>2012-12-16T09:20:45Z</time>
      </trkpt>
      <trkpt lat="44.58643" lon="0.98822">
        <ele>194.32</ele>
        <time>2012-12-16T09:21:10Z</time>
      </trkpt>
      <trkpt lat="44.58645" lon="0.98821">
        <ele>195.77</ele>
        <time>2012-12-16T09:21:34Z</time>
      </trkpt>
      <trkpt lat="44.58645" lon="0.98822">
        <ele>195.77</ele>
        <time>2012-12-16T09:21:37Z</time>
      </trkpt>
      <trkpt lat="44.58654" lon="0.98844">
        <ele>196.73</ele>
        <time>2012-12-16T09:21:48Z</time>
      </trkpt>
      <trkpt lat="44.58658" lon="0.98851">
        <ele>196.73</ele>
        <time>2012-12-16T09:21:51Z</time>
      </trkpt>
      <trkpt lat="44.58677" lon="0.98888">
        <ele>200.09</ele>
        <time>2012-12-16T09:22:06Z</time>
      </trkpt>
      <trkpt lat="44.58702" lon="0.98917">
        <ele>205.86</ele>
        <time>2012-12-16T09:22:21Z</time>
      </trkpt>
      <trkpt lat="44.58733" lon="0.98923">
        <ele>209.22</ele>
        <time>2012-12-16T09:22:35Z</time>
      </trkpt>
      <trkpt lat="44.58768" lon="0.98916">
        <ele>213.07</ele>
        <time>2012-12-16T09:22:49Z</time>
      </trkpt>
      <trkpt lat="44.58779" lon="0.98912">
        <ele>219.32</ele>
        <time>2012-12-16T09:23:00Z</time>
      </trkpt>
      <trkpt lat="44.58783" lon="0.98912">
        <ele>219.8</ele>
        <time>2012-12-16T09:23:17Z</time>
      </trkpt>
      <trkpt lat="44.58787" lon="0.98912">
        <ele>218.84</ele>
        <time>2012-12-16T09:23:26Z</time>
      </trkpt>
      <trkpt lat="44.58792" lon="0.98912">
        <ele>219.32</ele>
        <time>2012-12-16T09:23:40Z</time>
      </trkpt>
      <trkpt lat="44.58795" lon="0.98913">
        <ele>219.8</ele>
        <time>2012-12-16T09:23:51Z</time>
      </trkpt>
      <trkpt lat="44.58807" lon="0.98913">
        <ele>222.2</ele>
        <time>2012-12-16T09:24:00Z</time>
      </trkpt>
      <trkpt lat="44.58832" lon="0.98914">
        <ele>227.49</ele>
        <time>2012-12-16T09:24:13Z</time>
      </trkpt>
      <trkpt lat="44.58857" lon="0.98912">
        <ele>230.85</ele>
        <time>2012-12-16T09:24:25Z</time>
      </trkpt>
      <trkpt lat="44.5886" lon="0.98913">
        <ele>231.33</ele>
        <time>2012-12-16T09:24:28Z</time>
      </trkpt>
      <trkpt lat="44.58867" lon="0.98917">
        <ele>231.33</ele>
        <time>2012-12-16T09:24:32Z</time>
      </trkpt>
      <trkpt lat="44.58898" lon="0.98935">
        <ele>234.22</ele>
        <time>2012-12-16T09:24:46Z</time>
      </trkpt>
      <trkpt lat="44.58916" lon="0.98925">
        <ele>235.66</ele>
        <time>2012-12-16T09:24:55Z</time>
      </trkpt>
      <trkpt lat="44.58927" lon="0.9894">
        <ele>233.74</ele>
        <time>2012-12-16T09:25:06Z</time>
      </trkpt>
      <trkpt lat="44.58934" lon="0.98944">
        <ele>233.26</ele>
        <time>2012-12-16T09:25:18Z</time>
      </trkpt>
      <trkpt lat="44.58937" lon="0.98941">
        <ele>233.74</ele>
        <time>2012-12-16T09:25:38Z</time>
      </trkpt>
      <trkpt lat="44.58936" lon="0.98941">
        <ele>233.26</ele>
        <time>2012-12-16T09:25:57Z</time>
      </trkpt>
      <trkpt lat="44.58935" lon="0.98943">
        <ele>232.78</ele>
        <time>2012-12-16T09:26:10Z</time>
      </trkpt>
      <trkpt lat="44.58937" lon="0.98942">
        <ele>233.26</ele>
        <time>2012-12-16T09:26:31Z</time>
      </trkpt>
      <trkpt lat="44.58938" lon="0.98942">
        <ele>236.62</ele>
        <time>2012-12-16T09:27:01Z</time>
      </trkpt>
      <trkpt lat="44.58938" lon="0.98942">
        <ele>235.18</ele>
        <time>2012-12-16T09:27:20Z</time>
      </trkpt>
      <trkpt lat="44.58936" lon="0.98942">
        <ele>234.22</ele>
        <time>2012-12-16T09:27:36Z</time>
      </trkpt>
      <trkpt lat="44.58937" lon="0.98941">
        <ele>234.22</ele>
        <time>2012-12-16T09:27:58Z</time>
      </trkpt>
      <trkpt lat="44.58939" lon="0.98943">
        <ele>234.7</ele>
        <time>2012-12-16T09:28:12Z</time>
      </trkpt>
      <trkpt lat="44.5897" lon="0.98942">
        <ele>233.26</ele>
        <time>2012-12-16T09:28:26Z</time>
      </trkpt>
      <trkpt lat="44.58999" lon="0.98924">
        <ele>232.3</ele>
        <time>2012-12-16T09:28:37Z</time>
      </trkpt>
      <trkpt lat="44.59027" lon="0.98888">
        <ele>231.33</ele>
        <time>2012-12-16T09:28:48Z</time>
      </trkpt>
      <trkpt lat="44.59053" lon="0.98845">
        <ele>233.74</ele>
        <time>2012-12-16T09:28:59Z</time>
      </trkpt>
      <trkpt lat="44.59083" lon="0.98812">
        <ele>236.62</ele>
        <time>2012-12-16T09:29:10Z</time>
      </trkpt>
      <trkpt lat="44.59122" lon="0.98776">
        <ele>239.51</ele>
        <time>2012-12-16T09:29:23Z</time>
      </trkpt>
      <trkpt lat="44.59148" lon="0.98761">
        <ele>240.95</ele>
        <time>2012-12-16T09:29:34Z</time>
      </trkpt>
      <trkpt lat="44.59184" lon="0.98754">
        <ele>240.47</ele>
        <time>2012-12-16T09:29:43Z</time>
      </trkpt>
      <trkpt lat="44.59205" lon="0.98753">
        <ele>239.99</ele>
        <time>2012-12-16T09:29:48Z</time>
      </trkpt>
      <trkpt lat="44.59223" lon="0.98736">
        <ele>240.95</ele>
        <time>2012-12-16T09:29:53Z</time>
      </trkpt>
      <trkpt lat="44.59281" lon="0.9867">
        <ele>239.99</ele>
        <time>2012-12-16T09:30:09Z</time>
      </trkpt>
      <trkpt lat="44.59316" lon="0.98625">
        <ele>237.1</ele>
        <time>2012-12-16T09:30:21Z</time>
      </trkpt>
      <trkpt lat="44.59331" lon="0.98533">
        <ele>231.33</ele>
        <time>2012-12-16T09:30:36Z</time>
      </trkpt>
      <trkpt lat="44.59319" lon="0.98471">
        <ele>230.37</ele>
        <time>2012-12-16T09:30:48Z</time>
      </trkpt>
      <trkpt lat="44.59285" lon="0.98403">
        <ele>232.78</ele>
        <time>2012-12-16T09:31:03Z</time>
      </trkpt>
      <trkpt lat="44.59268" lon="0.98362">
        <ele>232.78</ele>
        <time>2012-12-16T09:31:11Z</time>
      </trkpt>
      <trkpt lat="44.59273" lon="0.98337">
        <ele>233.26</ele>
        <time>2012-12-16T09:31:19Z</time>
      </trkpt>
      <trkpt lat="44.59282" lon="0.9833">
        <ele>233.26</ele>
        <time>2012-12-16T09:31:23Z</time>
      </trkpt>
      <trkpt lat="44.5931" lon="0.98287">
        <ele>235.66</ele>
        <time>2012-12-16T09:31:36Z</time>
      </trkpt>
      <trkpt lat="44.59315" lon="0.98276">
        <ele>235.66</ele>
        <time>2012-12-16T09:31:38Z</time>
      </trkpt>
      <trkpt lat="44.59342" lon="0.98198">
        <ele>233.74</ele>
        <time>2012-12-16T09:31:47Z</time>
      </trkpt>
      <trkpt lat="44.59358" lon="0.98168">
        <ele>232.78</ele>
        <time>2012-12-16T09:31:55Z</time>
      </trkpt>
      <trkpt lat="44.59362" lon="0.98158">
        <ele>232.78</ele>
        <time>2012-12-16T09:31:58Z</time>
      </trkpt>
      <trkpt lat="44.59361" lon="0.98149">
        <ele>233.74</ele>
        <time>2012-12-16T09:32:02Z</time>
      </trkpt>
      <trkpt lat="44.5936" lon="0.98146">
        <ele>233.74</ele>
        <time>2012-12-16T09:32:04Z</time>
      </trkpt>
      <trkpt lat="44.59342" lon="0.981">
        <ele>231.81</ele>
        <time>2012-12-16T09:32:15Z</time>
      </trkpt>
      <trkpt lat="44.59334" lon="0.98061">
        <ele>226.05</ele>
        <time>2012-12-16T09:32:20Z</time>
      </trkpt>
      <trkpt lat="44.593" lon="0.9801">
        <ele>220.76</ele>
        <time>2012-12-16T09:32:29Z</time>
      </trkpt>
      <trkpt lat="44.5929" lon="0.97993">
        <ele>221.72</ele>
        <time>2012-12-16T09:32:34Z</time>
      </trkpt>
      <trkpt lat="44.59283" lon="0.97938">
        <ele>221.24</ele>
        <time>2012-12-16T09:32:46Z</time>
      </trkpt>
      <trkpt lat="44.59275" lon="0.97888">
        <ele>218.84</ele>
        <time>2012-12-16T09:32:57Z</time>
      </trkpt>
      <trkpt lat="44.59257" lon="0.97838">
        <ele>213.07</ele>
        <time>2012-12-16T09:33:09Z</time>
      </trkpt>
      <trkpt lat="44.59245" lon="0.97786">
        <ele>208.26</ele>
        <time>2012-12-16T09:33:19Z</time>
      </trkpt>
      <trkpt lat="44.59241" lon="0.97753">
        <ele>203.46</ele>
        <time>2012-12-16T09:33:30Z</time>
      </trkpt>
      <trkpt lat="44.59238" lon="0.97749">
        <ele>209.7</ele>
        <time>2012-12-16T09:33:45Z</time>
      </trkpt>
      <trkpt lat="44.59234" lon="0.97746">
        <ele>214.99</ele>
        <time>2012-12-16T09:34:08Z</time>
      </trkpt>
      <trkpt lat="44.59234" lon="0.97746">
        <ele>223.64</ele>
        <time>2012-12-16T09:34:37Z</time>
      </trkpt>
      <trkpt lat="44.59234" lon="0.97747">
        <ele>220.28</ele>
        <time>2012-12-16T09:35:00Z</time>
      </trkpt>
      <trkpt lat="44.59232" lon="0.97748">
        <ele>219.8</ele>
        <time>2012-12-16T09:35:35Z</time>
      </trkpt>
      <trkpt lat="44.59234" lon="0.97747">
        <ele>220.76</ele>
        <time>2012-12-16T09:35:49Z</time>
      </trkpt>
      <trkpt lat="44.59234" lon="0.97748">
        <ele>222.68</ele>
        <time>2012-12-16T09:36:06Z</time>
      </trkpt>
      <trkpt lat="44.59233" lon="0.97748">
        <ele>224.12</ele>
        <time>2012-12-16T09:36:14Z</time>
      </trkpt>
      <trkpt lat="44.59229" lon="0.97752">
        <ele>223.64</ele>
        <time>2012-12-16T09:36:18Z</time>
      </trkpt>
      <trkpt lat="44.5922" lon="0.97753">
        <ele>223.16</ele>
        <time>2012-12-16T09:36:23Z</time>
      </trkpt>
      <trkpt lat="44.5921" lon="0.97751">
        <ele>222.68</ele>
        <time>2012-12-16T09:36:26Z</time>
      </trkpt>
      <trkpt lat="44.59189" lon="0.97752">
        <ele>220.28</ele>
        <time>2012-12-16T09:36:30Z</time>
      </trkpt>
      <trkpt lat="44.59164" lon="0.97763">
        <ele>216.43</ele>
        <time>2012-12-16T09:36:35Z</time>
      </trkpt>
      <trkpt lat="44.5915" lon="0.97784">
        <ele>213.07</ele>
        <time>2012-12-16T09:36:39Z</time>
      </trkpt>
      <trkpt lat="44.59143" lon="0.97812">
        <ele>208.74</ele>
        <time>2012-12-16T09:36:44Z</time>
      </trkpt>
      <trkpt lat="44.59129" lon="0.97839">
        <ele>204.9</ele>
        <time>2012-12-16T09:36:48Z</time>
      </trkpt>
      <trkpt lat="44.59105" lon="0.97868">
        <ele>199.13</ele>
        <time>2012-12-16T09:36:53Z</time>
      </trkpt>
      <trkpt lat="44.59063" lon="0.97883">
        <ele>189.04</ele>
        <time>2012-12-16T09:37:00Z</time>
      </trkpt>
      <trkpt lat="44.59042" lon="0.9788">
        <ele>186.15</ele>
        <time>2012-12-16T09:37:03Z</time>
      </trkpt>
      <trkpt lat="44.58985" lon="0.97898">
        <ele>183.27</ele>
        <time>2012-12-16T09:37:13Z</time>
      </trkpt>
      <trkpt lat="44.58981" lon="0.97884">
        <ele>184.23</ele>
        <time>2012-12-16T09:37:21Z</time>
      </trkpt>
      <trkpt lat="44.58972" lon="0.97848">
        <ele>186.15</ele>
        <time>2012-12-16T09:37:34Z</time>
      </trkpt>
      <trkpt lat="44.58968" lon="0.97833">
        <ele>188.56</ele>
        <time>2012-12-16T09:37:40Z</time>
      </trkpt>
      <trkpt lat="44.58965" lon="0.97826">
        <ele>190.96</ele>
        <time>2012-12-16T09:37:55Z</time>
      </trkpt>
      <trkpt lat="44.58964" lon="0.9782">
        <ele>192.4</ele>
        <time>2012-12-16T09:38:04Z</time>
      </trkpt>
      <trkpt lat="44.58947" lon="0.97788">
        <ele>193.84</ele>
        <time>2012-12-16T09:38:17Z</time>
      </trkpt>
      <trkpt lat="44.58919" lon="0.97772">
        <ele>195.28</ele>
        <time>2012-12-16T09:38:27Z</time>
      </trkpt>
      <trkpt lat="44.58878" lon="0.97731">
        <ele>196.73</ele>
        <time>2012-12-16T09:38:39Z</time>
      </trkpt>
      <trkpt lat="44.58874" lon="0.97722">
        <ele>198.17</ele>
        <time>2012-12-16T09:38:48Z</time>
      </trkpt>
      <trkpt lat="44.58873" lon="0.97722">
        <ele>197.21</ele>
        <time>2012-12-16T09:39:09Z</time>
      </trkpt>
      <trkpt lat="44.58872" lon="0.97722">
        <ele>196.25</ele>
        <time>2012-12-16T09:39:35Z</time>
      </trkpt>
      <trkpt lat="44.58874" lon="0.97725">
        <ele>197.21</ele>
        <time>2012-12-16T09:40:07Z</time>
      </trkpt>
      <trkpt lat="44.58873" lon="0.97722">
        <ele>195.77</ele>
        <time>2012-12-16T09:40:37Z</time>
      </trkpt>
      <trkpt lat="44.58873" lon="0.97721">
        <ele>194.32</ele>
        <time>2012-12-16T09:41:08Z</time>
      </trkpt>
      <trkpt lat="44.58874" lon="0.97723">
        <ele>195.28</ele>
        <time>2012-12-16T09:41:35Z</time>
      </trkpt>
      <trkpt lat="44.58873" lon="0.97726">
        <ele>196.25</ele>
        <time>2012-12-16T09:42:07Z</time>
      </trkpt>
      <trkpt lat="44.58874" lon="0.97725">
        <ele>197.69</ele>
        <time>2012-12-16T09:42:35Z</time>
      </trkpt>
      <trkpt lat="44.58875" lon="0.97723">
        <ele>196.73</ele>
        <time>2012-12-16T09:43:01Z</time>
      </trkpt>
      <trkpt lat="44.58874" lon="0.97723">
        <ele>197.21</ele>
        <time>2012-12-16T09:43:29Z</time>
      </trkpt>
      <trkpt lat="44.58871" lon="0.97727">
        <ele>198.65</ele>
        <time>2012-12-16T09:44:08Z</time>
      </trkpt>
      <trkpt lat="44.58873" lon="0.97723">
        <ele>198.65</ele>
        <time>2012-12-16T09:44:54Z</time>
      </trkpt>
      <trkpt lat="44.58871" lon="0.97724">
        <ele>198.17</ele>
        <time>2012-12-16T09:45:28Z</time>
      </trkpt>
      <trkpt lat="44.58873" lon="0.97725">
        <ele>198.65</ele>
        <time>2012-12-16T09:46:07Z</time>
      </trkpt>
      <trkpt lat="44.58872" lon="0.97724">
        <ele>195.77</ele>
        <time>2012-12-16T09:46:41Z</time>
      </trkpt>
      <trkpt lat="44.58871" lon="0.97724">
        <ele>196.73</ele>
        <time>2012-12-16T09:47:17Z</time>
      </trkpt>
      <trkpt lat="44.58869" lon="0.97723">
        <ele>199.61</ele>
        <time>2012-12-16T09:47:50Z</time>
      </trkpt>
      <trkpt lat="44.58871" lon="0.97724">
        <ele>197.21</ele>
        <time>2012-12-16T09:48:16Z</time>
      </trkpt>
      <trkpt lat="44.58873" lon="0.97724">
        <ele>198.65</ele>
        <time>2012-12-16T09:48:28Z</time>
      </trkpt>
      <trkpt lat="44.58873" lon="0.97722">
        <ele>199.13</ele>
        <time>2012-12-16T09:48:37Z</time>
      </trkpt>
      <trkpt lat="44.58866" lon="0.97683">
        <ele>199.13</ele>
        <time>2012-12-16T09:48:50Z</time>
      </trkpt>
      <trkpt lat="44.58878" lon="0.9762">
        <ele>200.09</ele>
        <time>2012-12-16T09:49:07Z</time>
      </trkpt>
      <trkpt lat="44.589" lon="0.97589">
        <ele>206.34</ele>
        <time>2012-12-16T09:49:21Z</time>
      </trkpt>
      <trkpt lat="44.58929" lon="0.9755">
        <ele>207.78</ele>
        <time>2012-12-16T09:49:36Z</time>
      </trkpt>
      <trkpt lat="44.58959" lon="0.97513">
        <ele>205.86</ele>
        <time>2012-12-16T09:49:47Z</time>
      </trkpt>
      <trkpt lat="44.58975" lon="0.97468">
        <ele>204.42</ele>
        <time>2012-12-16T09:49:59Z</time>
      </trkpt>
      <trkpt lat="44.58994" lon="0.97407">
        <ele>203.46</ele>
        <time>2012-12-16T09:50:12Z</time>
      </trkpt>
      <trkpt lat="44.59016" lon="0.97397">
        <ele>206.34</ele>
        <time>2012-12-16T09:50:21Z</time>
      </trkpt>
      <trkpt lat="44.59019" lon="0.9739">
        <ele>206.82</ele>
        <time>2012-12-16T09:50:31Z</time>
      </trkpt>
      <trkpt lat="44.5902" lon="0.97381">
        <ele>205.86</ele>
        <time>2012-12-16T09:50:42Z</time>
      </trkpt>
      <trkpt lat="44.5902" lon="0.97381">
        <ele>206.82</ele>
        <time>2012-12-16T09:51:01Z</time>
      </trkpt>
      <trkpt lat="44.59023" lon="0.97374">
        <ele>205.86</ele>
        <time>2012-12-16T09:51:10Z</time>
      </trkpt>
      <trkpt lat="44.5903" lon="0.97364">
        <ele>204.9</ele>
        <time>2012-12-16T09:51:20Z</time>
      </trkpt>
      <trkpt lat="44.59029" lon="0.97368">
        <ele>204.9</ele>
        <time>2012-12-16T09:51:32Z</time>
      </trkpt>
      <trkpt lat="44.59023" lon="0.97374">
        <ele>205.38</ele>
        <time>2012-12-16T09:51:45Z</time>
      </trkpt>
      <trkpt lat="44.59022" lon="0.97376">
        <ele>205.86</ele>
        <time>2012-12-16T09:51:46Z</time>
      </trkpt>
      <trkpt lat="44.59017" lon="0.97374">
        <ele>204.9</ele>
        <time>2012-12-16T09:51:55Z</time>
      </trkpt>
      <trkpt lat="44.59017" lon="0.97359">
        <ele>203.46</ele>
        <time>2012-12-16T09:52:05Z</time>
      </trkpt>
      <trkpt lat="44.5902" lon="0.97337">
        <ele>198.65</ele>
        <time>2012-12-16T09:52:15Z</time>
      </trkpt>
      <trkpt lat="44.59017" lon="0.97334">
        <ele>197.21</ele>
        <time>2012-12-16T09:52:18Z</time>
      </trkpt>
      <trkpt lat="44.59007" lon="0.97313">
        <ele>194.8</ele>
        <time>2012-12-16T09:52:28Z</time>
      </trkpt>
      <trkpt lat="44.59006" lon="0.9731">
        <ele>194.32</ele>
        <time>2012-12-16T09:52:31Z</time>
      </trkpt>
      <trkpt lat="44.59004" lon="0.97301">
        <ele>192.4</ele>
        <time>2012-12-16T09:52:42Z</time>
      </trkpt>
      <trkpt lat="44.59004" lon="0.97297">
        <ele>192.88</ele>
        <time>2012-12-16T09:52:50Z</time>
      </trkpt>
      <trkpt lat="44.58984" lon="0.97275">
        <ele>187.59</ele>
        <time>2012-12-16T09:53:00Z</time>
      </trkpt>
      <trkpt lat="44.58978" lon="0.97266">
        <ele>184.23</ele>
        <time>2012-12-16T09:53:03Z</time>
      </trkpt>
      <trkpt lat="44.58971" lon="0.97254">
        <ele>179.42</ele>
        <time>2012-12-16T09:53:07Z</time>
      </trkpt>
      <trkpt lat="44.5896" lon="0.97234">
        <ele>174.62</ele>
        <time>2012-12-16T09:53:12Z</time>
      </trkpt>
      <trkpt lat="44.58956" lon="0.97222">
        <ele>170.77</ele>
        <time>2012-12-16T09:53:16Z</time>
      </trkpt>
      <trkpt lat="44.58957" lon="0.97218">
        <ele>169.33</ele>
        <time>2012-12-16T09:53:18Z</time>
      </trkpt>
      <trkpt lat="44.58958" lon="0.9721">
        <ele>164.04</ele>
        <time>2012-12-16T09:53:32Z</time>
      </trkpt>
      <trkpt lat="44.58954" lon="0.97201">
        <ele>169.81</ele>
        <time>2012-12-16T09:53:56Z</time>
      </trkpt>
      <trkpt lat="44.58948" lon="0.97201">
        <ele>170.77</ele>
        <time>2012-12-16T09:54:02Z</time>
      </trkpt>
      <trkpt lat="44.58947" lon="0.97195">
        <ele>171.25</ele>
        <time>2012-12-16T09:54:19Z</time>
      </trkpt>
      <trkpt lat="44.58947" lon="0.97193">
        <ele>172.69</ele>
        <time>2012-12-16T09:54:28Z</time>
      </trkpt>
      <trkpt lat="44.58959" lon="0.9718">
        <ele>171.25</ele>
        <time>2012-12-16T09:54:37Z</time>
      </trkpt>
      <trkpt lat="44.5899" lon="0.97152">
        <ele>170.77</ele>
        <time>2012-12-16T09:54:47Z</time>
      </trkpt>
      <trkpt lat="44.59007" lon="0.97148">
        <ele>169.33</ele>
        <time>2012-12-16T09:54:52Z</time>
      </trkpt>
      <trkpt lat="44.59016" lon="0.97147">
        <ele>168.85</ele>
        <time>2012-12-16T09:54:54Z</time>
      </trkpt>
      <trkpt lat="44.59043" lon="0.97126">
        <ele>166.93</ele>
        <time>2012-12-16T09:55:01Z</time>
      </trkpt>
      <trkpt lat="44.59065" lon="0.97086">
        <ele>166.93</ele>
        <time>2012-12-16T09:55:11Z</time>
      </trkpt>
      <trkpt lat="44.59084" lon="0.97062">
        <ele>165.96</ele>
        <time>2012-12-16T09:55:19Z</time>
      </trkpt>
      <trkpt lat="44.59098" lon="0.97047">
        <ele>165</ele>
        <time>2012-12-16T09:55:23Z</time>
      </trkpt>
      <trkpt lat="44.5911" lon="0.97038">
        <ele>165.48</ele>
        <time>2012-12-16T09:55:26Z</time>
      </trkpt>
      <trkpt lat="44.59121" lon="0.97028">
        <ele>165.96</ele>
        <time>2012-12-16T09:55:29Z</time>
      </trkpt>
      <trkpt lat="44.59166" lon="0.96997">
        <ele>167.41</ele>
        <time>2012-12-16T09:55:44Z</time>
      </trkpt>
      <trkpt lat="44.59173" lon="0.96991">
        <ele>167.89</ele>
        <time>2012-12-16T09:55:49Z</time>
      </trkpt>
      <trkpt lat="44.59186" lon="0.96984">
        <ele>167.89</ele>
        <time>2012-12-16T09:55:54Z</time>
      </trkpt>
      <trkpt lat="44.59212" lon="0.96975">
        <ele>166.93</ele>
        <time>2012-12-16T09:55:59Z</time>
      </trkpt>
      <trkpt lat="44.59233" lon="0.9697">
        <ele>165.96</ele>
        <time>2012-12-16T09:56:03Z</time>
      </trkpt>
      <trkpt lat="44.59243" lon="0.96967">
        <ele>165.48</ele>
        <time>2012-12-16T09:56:05Z</time>
      </trkpt>
      <trkpt lat="44.59256" lon="0.96961">
        <ele>165</ele>
        <time>2012-12-16T09:56:08Z</time>
      </trkpt>
      <trkpt lat="44.59276" lon="0.96948">
        <ele>163.56</ele>
        <time>2012-12-16T09:56:12Z</time>
      </trkpt>
      <trkpt lat="44.59289" lon="0.96941">
        <ele>163.08</ele>
        <time>2012-12-16T09:56:15Z</time>
      </trkpt>
      <trkpt lat="44.59297" lon="0.96935">
        <ele>162.6</ele>
        <time>2012-12-16T09:56:17Z</time>
      </trkpt>
      <trkpt lat="44.59326" lon="0.96919">
        <ele>161.16</ele>
        <time>2012-12-16T09:56:25Z</time>
      </trkpt>
      <trkpt lat="44.59343" lon="0.96904">
        <ele>159.24</ele>
        <time>2012-12-16T09:56:29Z</time>
      </trkpt>
      <trkpt lat="44.59362" lon="0.96876">
        <ele>155.87</ele>
        <time>2012-12-16T09:56:35Z</time>
      </trkpt>
      <trkpt lat="44.59395" lon="0.9685">
        <ele>153.47</ele>
        <time>2012-12-16T09:56:43Z</time>
      </trkpt>
      <trkpt lat="44.59425" lon="0.96839">
        <ele>156.83</ele>
        <time>2012-12-16T09:56:54Z</time>
      </trkpt>
      <trkpt lat="44.59456" lon="0.96833">
        <ele>161.64</ele>
        <time>2012-12-16T09:57:07Z</time>
      </trkpt>
      <trkpt lat="44.59481" lon="0.96835">
        <ele>164.04</ele>
        <time>2012-12-16T09:57:19Z</time>
      </trkpt>
      <trkpt lat="44.5949" lon="0.9684">
        <ele>164.52</ele>
        <time>2012-12-16T09:57:25Z</time>
      </trkpt>
      <trkpt lat="44.59509" lon="0.96864">
        <ele>162.6</ele>
        <time>2012-12-16T09:57:35Z</time>
      </trkpt>
      <trkpt lat="44.59519" lon="0.96865">
        <ele>160.68</ele>
        <time>2012-12-16T09:57:47Z</time>
      </trkpt>
      <trkpt lat="44.59522" lon="0.96863">
        <ele>160.68</ele>
        <time>2012-12-16T09:58:10Z</time>
      </trkpt>
      <trkpt lat="44.59523" lon="0.96867">
        <ele>160.68</ele>
        <time>2012-12-16T09:58:26Z</time>
      </trkpt>
      <trkpt lat="44.59526" lon="0.96868">
        <ele>160.68</ele>
        <time>2012-12-16T09:58:49Z</time>
      </trkpt>
      <trkpt lat="44.59528" lon="0.96865">
        <ele>161.64</ele>
        <time>2012-12-16T09:59:11Z</time>
      </trkpt>
      <trkpt lat="44.59531" lon="0.96861">
        <ele>160.68</ele>
        <time>2012-12-16T09:59:33Z</time>
      </trkpt>
      <trkpt lat="44.59549" lon="0.96836">
        <ele>160.2</ele>
        <time>2012-12-16T09:59:43Z</time>
      </trkpt>
      <trkpt lat="44.59558" lon="0.96822">
        <ele>160.68</ele>
        <time>2012-12-16T09:59:47Z</time>
      </trkpt>
      <trkpt lat="44.59582" lon="0.9681">
        <ele>159.24</ele>
        <time>2012-12-16T09:59:52Z</time>
      </trkpt>
      <trkpt lat="44.59602" lon="0.96792">
        <ele>157.79</ele>
        <time>2012-12-16T09:59:56Z</time>
      </trkpt>
      <trkpt lat="44.5962" lon="0.9675">
        <ele>155.87</ele>
        <time>2012-12-16T10:00:03Z</time>
      </trkpt>
      <trkpt lat="44.59629" lon="0.96745">
        <ele>154.43</ele>
        <time>2012-12-16T10:00:07Z</time>
      </trkpt>
      <trkpt lat="44.59659" lon="0.96761">
        <ele>154.91</ele>
        <time>2012-12-16T10:00:17Z</time>
      </trkpt>
      <trkpt lat="44.5967" lon="0.96773">
        <ele>154.43</ele>
        <time>2012-12-16T10:00:20Z</time>
      </trkpt>
      <trkpt lat="44.59679" lon="0.96787">
        <ele>153.95</ele>
        <time>2012-12-16T10:00:23Z</time>
      </trkpt>
      <trkpt lat="44.59692" lon="0.96815">
        <ele>154.91</ele>
        <time>2012-12-16T10:00:28Z</time>
      </trkpt>
      <trkpt lat="44.597" lon="0.96831">
        <ele>155.39</ele>
        <time>2012-12-16T10:00:31Z</time>
      </trkpt>
      <trkpt lat="44.59714" lon="0.96841">
        <ele>155.87</ele>
        <time>2012-12-16T10:00:35Z</time>
      </trkpt>
      <trkpt lat="44.59759" lon="0.96843">
        <ele>157.79</ele>
        <time>2012-12-16T10:00:48Z</time>
      </trkpt>
      <trkpt lat="44.59763" lon="0.96844">
        <ele>158.75</ele>
        <time>2012-12-16T10:00:50Z</time>
      </trkpt>
      <trkpt lat="44.59799" lon="0.9688">
        <ele>160.2</ele>
        <time>2012-12-16T10:01:04Z</time>
      </trkpt>
      <trkpt lat="44.59835" lon="0.9693">
        <ele>160.2</ele>
        <time>2012-12-16T10:01:17Z</time>
      </trkpt>
      <trkpt lat="44.5986" lon="0.96963">
        <ele>161.64</ele>
        <time>2012-12-16T10:01:27Z</time>
      </trkpt>
      <trkpt lat="44.59861" lon="0.96979">
        <ele>162.12</ele>
        <time>2012-12-16T10:01:32Z</time>
      </trkpt>
      <trkpt lat="44.59859" lon="0.96985">
        <ele>161.16</ele>
        <time>2012-12-16T10:01:34Z</time>
      </trkpt>
      <trkpt lat="44.59863" lon="0.96995">
        <ele>160.2</ele>
        <time>2012-12-16T10:01:38Z</time>
      </trkpt>
      <trkpt lat="44.5989" lon="0.96997">
        <ele>155.87</ele>
        <time>2012-12-16T10:01:46Z</time>
      </trkpt>
      <trkpt lat="44.59897" lon="0.97004">
        <ele>154.43</ele>
        <time>2012-12-16T10:01:51Z</time>
      </trkpt>
      <trkpt lat="44.59921" lon="0.97025">
        <ele>145.3</ele>
        <time>2012-12-16T10:02:01Z</time>
      </trkpt>
      <trkpt lat="44.59941" lon="0.97034">
        <ele>138.09</ele>
        <time>2012-12-16T10:02:09Z</time>
      </trkpt>
      <trkpt lat="44.59975" lon="0.97004">
        <ele>134.24</ele>
        <time>2012-12-16T10:02:21Z</time>
      </trkpt>
      <trkpt lat="44.59985" lon="0.97">
        <ele>131.36</ele>
        <time>2012-12-16T10:02:30Z</time>
      </trkpt>
      <trkpt lat="44.59985" lon="0.96998">
        <ele>132.32</ele>
        <time>2012-12-16T10:02:45Z</time>
      </trkpt>
      <trkpt lat="44.59989" lon="0.96995">
        <ele>131.36</ele>
        <time>2012-12-16T10:03:01Z</time>
      </trkpt>
      <trkpt lat="44.60005" lon="0.97004">
        <ele>129.43</ele>
        <time>2012-12-16T10:03:11Z</time>
      </trkpt>
      <trkpt lat="44.60025" lon="0.97025">
        <ele>131.36</ele>
        <time>2012-12-16T10:03:25Z</time>
      </trkpt>
      <trkpt lat="44.60048" lon="0.97035">
        <ele>131.84</ele>
        <time>2012-12-16T10:03:38Z</time>
      </trkpt>
      <trkpt lat="44.60082" lon="0.97049">
        <ele>132.32</ele>
        <time>2012-12-16T10:03:53Z</time>
      </trkpt>
      <trkpt lat="44.6011" lon="0.97063">
        <ele>132.32</ele>
        <time>2012-12-16T10:04:04Z</time>
      </trkpt>
      <trkpt lat="44.60144" lon="0.97081">
        <ele>135.68</ele>
        <time>2012-12-16T10:04:17Z</time>
      </trkpt>
      <trkpt lat="44.60175" lon="0.97113">
        <ele>140.97</ele>
        <time>2012-12-16T10:04:33Z</time>
      </trkpt>
      <trkpt lat="44.60195" lon="0.97134">
        <ele>141.93</ele>
        <time>2012-12-16T10:04:44Z</time>
      </trkpt>
      <trkpt lat="44.60226" lon="0.97138">
        <ele>141.45</ele>
        <time>2012-12-16T10:04:54Z</time>
      </trkpt>
      <trkpt lat="44.60267" lon="0.97154">
        <ele>142.89</ele>
        <time>2012-12-16T10:05:08Z</time>
      </trkpt>
      <trkpt lat="44.60301" lon="0.97167">
        <ele>146.74</ele>
        <time>2012-12-16T10:05:21Z</time>
      </trkpt>
      <trkpt lat="44.60322" lon="0.97169">
        <ele>150.58</ele>
        <time>2012-12-16T10:05:32Z</time>
      </trkpt>
      <trkpt lat="44.60337" lon="0.97144">
        <ele>154.91</ele>
        <time>2012-12-16T10:05:46Z</time>
      </trkpt>
      <trkpt lat="44.60338" lon="0.97132">
        <ele>157.31</ele>
        <time>2012-12-16T10:05:51Z</time>
      </trkpt>
      <trkpt lat="44.60342" lon="0.97114">
        <ele>160.68</ele>
        <time>2012-12-16T10:05:59Z</time>
      </trkpt>
      <trkpt lat="44.60345" lon="0.97103">
        <ele>163.08</ele>
        <time>2012-12-16T10:06:04Z</time>
      </trkpt>
      <trkpt lat="44.60353" lon="0.97082">
        <ele>167.89</ele>
        <time>2012-12-16T10:06:13Z</time>
      </trkpt>
      <trkpt lat="44.60362" lon="0.97066">
        <ele>172.21</ele>
        <time>2012-12-16T10:06:21Z</time>
      </trkpt>
      <trkpt lat="44.60375" lon="0.97046">
        <ele>175.58</ele>
        <time>2012-12-16T10:06:30Z</time>
      </trkpt>
      <trkpt lat="44.60402" lon="0.97021">
        <ele>179.42</ele>
        <time>2012-12-16T10:06:44Z</time>
      </trkpt>
      <trkpt lat="44.60436" lon="0.97">
        <ele>178.46</ele>
        <time>2012-12-16T10:06:58Z</time>
      </trkpt>
      <trkpt lat="44.60464" lon="0.96987">
        <ele>177.98</ele>
        <time>2012-12-16T10:07:10Z</time>
      </trkpt>
      <trkpt lat="44.60497" lon="0.96972">
        <ele>177.5</ele>
        <time>2012-12-16T10:07:22Z</time>
      </trkpt>
      <trkpt lat="44.60529" lon="0.96964">
        <ele>179.9</ele>
        <time>2012-12-16T10:07:34Z</time>
      </trkpt>
      <trkpt lat="44.60551" lon="0.9694">
        <ele>180.38</ele>
        <time>2012-12-16T10:07:48Z</time>
      </trkpt>
      <trkpt lat="44.60576" lon="0.96905">
        <ele>180.87</ele>
        <time>2012-12-16T10:08:03Z</time>
      </trkpt>
      <trkpt lat="44.60604" lon="0.96877">
        <ele>186.15</ele>
        <time>2012-12-16T10:08:16Z</time>
      </trkpt>
      <trkpt lat="44.60633" lon="0.96847">
        <ele>190</ele>
        <time>2012-12-16T10:08:30Z</time>
      </trkpt>
      <trkpt lat="44.60649" lon="0.96815">
        <ele>193.36</ele>
        <time>2012-12-16T10:08:42Z</time>
      </trkpt>
      <trkpt lat="44.6064" lon="0.96767">
        <ele>200.57</ele>
        <time>2012-12-16T10:08:59Z</time>
      </trkpt>
      <trkpt lat="44.60628" lon="0.9673">
        <ele>205.38</ele>
        <time>2012-12-16T10:09:12Z</time>
      </trkpt>
      <trkpt lat="44.60625" lon="0.96715">
        <ele>206.82</ele>
        <time>2012-12-16T10:09:17Z</time>
      </trkpt>
      <trkpt lat="44.60624" lon="0.96707">
        <ele>207.3</ele>
        <time>2012-12-16T10:09:21Z</time>
      </trkpt>
      <trkpt lat="44.60626" lon="0.96675">
        <ele>202.49</ele>
        <time>2012-12-16T10:09:35Z</time>
      </trkpt>
      <trkpt lat="44.60626" lon="0.9667">
        <ele>199.61</ele>
        <time>2012-12-16T10:09:56Z</time>
      </trkpt>
      <trkpt lat="44.60625" lon="0.96669">
        <ele>200.09</ele>
        <time>2012-12-16T10:10:12Z</time>
      </trkpt>
      <trkpt lat="44.60625" lon="0.96669">
        <ele>201.05</ele>
        <time>2012-12-16T10:10:30Z</time>
      </trkpt>
      <trkpt lat="44.60625" lon="0.96667">
        <ele>202.49</ele>
        <time>2012-12-16T10:10:49Z</time>
      </trkpt>
      <trkpt lat="44.60624" lon="0.96667">
        <ele>204.42</ele>
        <time>2012-12-16T10:11:12Z</time>
      </trkpt>
      <trkpt lat="44.60624" lon="0.96669">
        <ele>204.42</ele>
        <time>2012-12-16T10:11:28Z</time>
      </trkpt>
      <trkpt lat="44.60623" lon="0.96666">
        <ele>203.46</ele>
        <time>2012-12-16T10:11:50Z</time>
      </trkpt>
      <trkpt lat="44.60624" lon="0.96662">
        <ele>204.9</ele>
        <time>2012-12-16T10:12:10Z</time>
      </trkpt>
      <trkpt lat="44.60626" lon="0.96664">
        <ele>207.78</ele>
        <time>2012-12-16T10:12:35Z</time>
      </trkpt>
      <trkpt lat="44.60624" lon="0.96665">
        <ele>209.7</ele>
        <time>2012-12-16T10:12:59Z</time>
      </trkpt>
      <trkpt lat="44.60623" lon="0.96665">
        <ele>206.82</ele>
        <time>2012-12-16T10:13:23Z</time>
      </trkpt>
      <trkpt lat="44.60622" lon="0.96666">
        <ele>206.34</ele>
        <time>2012-12-16T10:13:42Z</time>
      </trkpt>
      <trkpt lat="44.60625" lon="0.96658">
        <ele>202.49</ele>
        <time>2012-12-16T10:13:54Z</time>
      </trkpt>
      <trkpt lat="44.60628" lon="0.96662">
        <ele>200.57</ele>
        <time>2012-12-16T10:14:14Z</time>
      </trkpt>
      <trkpt lat="44.60629" lon="0.96661">
        <ele>199.61</ele>
        <time>2012-12-16T10:14:39Z</time>
      </trkpt>
      <trkpt lat="44.60628" lon="0.96658">
        <ele>198.65</ele>
        <time>2012-12-16T10:15:03Z</time>
      </trkpt>
      <trkpt lat="44.6064" lon="0.96616">
        <ele>197.21</ele>
        <time>2012-12-16T10:15:14Z</time>
      </trkpt>
      <trkpt lat="44.60636" lon="0.96545">
        <ele>194.8</ele>
        <time>2012-12-16T10:15:27Z</time>
      </trkpt>
      <trkpt lat="44.60637" lon="0.96487">
        <ele>196.73</ele>
        <time>2012-12-16T10:15:39Z</time>
      </trkpt>
      <trkpt lat="44.60633" lon="0.96416">
        <ele>198.65</ele>
        <time>2012-12-16T10:15:53Z</time>
      </trkpt>
      <trkpt lat="44.60628" lon="0.96387">
        <ele>201.53</ele>
        <time>2012-12-16T10:15:59Z</time>
      </trkpt>
      <trkpt lat="44.60638" lon="0.96329">
        <ele>206.82</ele>
        <time>2012-12-16T10:16:12Z</time>
      </trkpt>
      <trkpt lat="44.60656" lon="0.96269">
        <ele>209.22</ele>
        <time>2012-12-16T10:16:25Z</time>
      </trkpt>
      <trkpt lat="44.60678" lon="0.96223">
        <ele>214.99</ele>
        <time>2012-12-16T10:16:37Z</time>
      </trkpt>
      <trkpt lat="44.60713" lon="0.96171">
        <ele>217.88</ele>
        <time>2012-12-16T10:16:52Z</time>
      </trkpt>
      <trkpt lat="44.60748" lon="0.96132">
        <ele>217.4</ele>
        <time>2012-12-16T10:17:06Z</time>
      </trkpt>
      <trkpt lat="44.6079" lon="0.9611">
        <ele>216.91</ele>
        <time>2012-12-16T10:17:20Z</time>
      </trkpt>
      <trkpt lat="44.60835" lon="0.96082">
        <ele>218.36</ele>
        <time>2012-12-16T10:17:34Z</time>
      </trkpt>
      <trkpt lat="44.60871" lon="0.96058">
        <ele>222.2</ele>
        <time>2012-12-16T10:17:47Z</time>
      </trkpt>
      <trkpt lat="44.60911" lon="0.96023">
        <ele>224.12</ele>
        <time>2012-12-16T10:18:02Z</time>
      </trkpt>
      <trkpt lat="44.60941" lon="0.95989">
        <ele>226.05</ele>
        <time>2012-12-16T10:18:15Z</time>
      </trkpt>
      <trkpt lat="44.60982" lon="0.95929">
        <ele>227.97</ele>
        <time>2012-12-16T10:18:31Z</time>
      </trkpt>
      <trkpt lat="44.61" lon="0.95876">
        <ele>226.05</ele>
        <time>2012-12-16T10:18:46Z</time>
      </trkpt>
      <trkpt lat="44.61014" lon="0.95823">
        <ele>224.12</ele>
        <time>2012-12-16T10:19:03Z</time>
      </trkpt>
      <trkpt lat="44.61024" lon="0.95779">
        <ele>225.09</ele>
        <time>2012-12-16T10:19:16Z</time>
      </trkpt>
      <trkpt lat="44.61036" lon="0.95727">
        <ele>228.93</ele>
        <time>2012-12-16T10:19:30Z</time>
      </trkpt>
      <trkpt lat="44.61053" lon="0.95677">
        <ele>231.81</ele>
        <time>2012-12-16T10:19:44Z</time>
      </trkpt>
      <trkpt lat="44.61076" lon="0.95614">
        <ele>232.78</ele>
        <time>2012-12-16T10:19:58Z</time>
      </trkpt>
      <trkpt lat="44.61093" lon="0.95578">
        <ele>232.3</ele>
        <time>2012-12-16T10:20:07Z</time>
      </trkpt>
      <trkpt lat="44.61123" lon="0.95507">
        <ele>230.85</ele>
        <time>2012-12-16T10:20:20Z</time>
      </trkpt>
      <trkpt lat="44.61125" lon="0.95502">
        <ele>231.81</ele>
        <time>2012-12-16T10:20:31Z</time>
      </trkpt>
      <trkpt lat="44.61128" lon="0.95501">
        <ele>233.26</ele>
        <time>2012-12-16T10:20:50Z</time>
      </trkpt>
      <trkpt lat="44.61126" lon="0.95502">
        <ele>232.78</ele>
        <time>2012-12-16T10:21:20Z</time>
      </trkpt>
      <trkpt lat="44.61129" lon="0.955">
        <ele>234.7</ele>
        <time>2012-12-16T10:21:43Z</time>
      </trkpt>
      <trkpt lat="44.61129" lon="0.95499">
        <ele>235.66</ele>
        <time>2012-12-16T10:22:08Z</time>
      </trkpt>
      <trkpt lat="44.61127" lon="0.955">
        <ele>236.14</ele>
        <time>2012-12-16T10:22:32Z</time>
      </trkpt>
      <trkpt lat="44.61127" lon="0.955">
        <ele>236.62</ele>
        <time>2012-12-16T10:22:34Z</time>
      </trkpt>
      <trkpt lat="44.61146" lon="0.95475">
        <ele>237.1</ele>
        <time>2012-12-16T10:22:45Z</time>
      </trkpt>
      <trkpt lat="44.61183" lon="0.9545">
        <ele>238.06</ele>
        <time>2012-12-16T10:22:57Z</time>
      </trkpt>
      <trkpt lat="44.61226" lon="0.95421">
        <ele>244.31</ele>
        <time>2012-12-16T10:23:10Z</time>
      </trkpt>
      <trkpt lat="44.61273" lon="0.95388">
        <ele>246.72</ele>
        <time>2012-12-16T10:23:23Z</time>
      </trkpt>
      <trkpt lat="44.61315" lon="0.95356">
        <ele>249.12</ele>
        <time>2012-12-16T10:23:35Z</time>
      </trkpt>
      <trkpt lat="44.61338" lon="0.95341">
        <ele>250.08</ele>
        <time>2012-12-16T10:23:41Z</time>
      </trkpt>
      <trkpt lat="44.61351" lon="0.95333">
        <ele>249.12</ele>
        <time>2012-12-16T10:23:44Z</time>
      </trkpt>
      <trkpt lat="44.61359" lon="0.95328">
        <ele>248.64</ele>
        <time>2012-12-16T10:23:46Z</time>
      </trkpt>
      <trkpt lat="44.61382" lon="0.95315">
        <ele>247.68</ele>
        <time>2012-12-16T10:23:51Z</time>
      </trkpt>
      <trkpt lat="44.61447" lon="0.95267">
        <ele>245.75</ele>
        <time>2012-12-16T10:24:05Z</time>
      </trkpt>
      <trkpt lat="44.61511" lon="0.95216">
        <ele>247.2</ele>
        <time>2012-12-16T10:24:20Z</time>
      </trkpt>
      <trkpt lat="44.61544" lon="0.95201">
        <ele>248.16</ele>
        <time>2012-12-16T10:24:29Z</time>
      </trkpt>
      <trkpt lat="44.61595" lon="0.95187">
        <ele>247.68</ele>
        <time>2012-12-16T10:24:40Z</time>
      </trkpt>
      <trkpt lat="44.61613" lon="0.95189">
        <ele>249.12</ele>
        <time>2012-12-16T10:24:44Z</time>
      </trkpt>
      <trkpt lat="44.61661" lon="0.95195">
        <ele>250.08</ele>
        <time>2012-12-16T10:24:56Z</time>
      </trkpt>
      <trkpt lat="44.61707" lon="0.95197">
        <ele>247.68</ele>
        <time>2012-12-16T10:25:06Z</time>
      </trkpt>
      <trkpt lat="44.61723" lon="0.95203">
        <ele>246.72</ele>
        <time>2012-12-16T10:25:09Z</time>
      </trkpt>
      <trkpt lat="44.61767" lon="0.95211">
        <ele>245.75</ele>
        <time>2012-12-16T10:25:19Z</time>
      </trkpt>
      <trkpt lat="44.618" lon="0.95218">
        <ele>247.2</ele>
        <time>2012-12-16T10:25:33Z</time>
      </trkpt>
      <trkpt lat="44.61853" lon="0.9523">
        <ele>245.75</ele>
        <time>2012-12-16T10:25:47Z</time>
      </trkpt>
      <trkpt lat="44.61934" lon="0.95262">
        <ele>244.79</ele>
        <time>2012-12-16T10:26:04Z</time>
      </trkpt>
      <trkpt lat="44.61994" lon="0.95286">
        <ele>246.23</ele>
        <time>2012-12-16T10:26:15Z</time>
      </trkpt>
      <trkpt lat="44.62031" lon="0.95306">
        <ele>245.75</ele>
        <time>2012-12-16T10:26:21Z</time>
      </trkpt>
      <trkpt lat="44.62051" lon="0.95312">
        <ele>246.23</ele>
        <time>2012-12-16T10:26:24Z</time>
      </trkpt>
      <trkpt lat="44.62124" lon="0.95317">
        <ele>247.2</ele>
        <time>2012-12-16T10:26:38Z</time>
      </trkpt>
      <trkpt lat="44.62195" lon="0.95339">
        <ele>240.95</ele>
        <time>2012-12-16T10:26:48Z</time>
      </trkpt>
      <trkpt lat="44.62277" lon="0.95366">
        <ele>236.62</ele>
        <time>2012-12-16T10:26:58Z</time>
      </trkpt>
      <trkpt lat="44.6237" lon="0.95365">
        <ele>233.26</ele>
        <time>2012-12-16T10:27:09Z</time>
      </trkpt>
      <trkpt lat="44.62467" lon="0.95406">
        <ele>233.26</ele>
        <time>2012-12-16T10:27:21Z</time>
      </trkpt>
      <trkpt lat="44.62538" lon="0.95427">
        <ele>234.7</ele>
        <time>2012-12-16T10:27:32Z</time>
      </trkpt>
      <trkpt lat="44.6256" lon="0.95427">
        <ele>235.66</ele>
        <time>2012-12-16T10:27:36Z</time>
      </trkpt>
      <trkpt lat="44.62574" lon="0.95423">
        <ele>236.62</ele>
        <time>2012-12-16T10:27:39Z</time>
      </trkpt>
      <trkpt lat="44.62598" lon="0.95415">
        <ele>238.06</ele>
        <time>2012-12-16T10:27:45Z</time>
      </trkpt>
      <trkpt lat="44.62637" lon="0.95402">
        <ele>234.7</ele>
        <time>2012-12-16T10:27:53Z</time>
      </trkpt>
      <trkpt lat="44.62692" lon="0.95365">
        <ele>235.18</ele>
        <time>2012-12-16T10:28:06Z</time>
      </trkpt>
      <trkpt lat="44.62759" lon="0.95315">
        <ele>238.54</ele>
        <time>2012-12-16T10:28:21Z</time>
      </trkpt>
      <trkpt lat="44.62783" lon="0.95302">
        <ele>239.02</ele>
        <time>2012-12-16T10:28:27Z</time>
      </trkpt>
      <trkpt lat="44.62843" lon="0.95281">
        <ele>239.02</ele>
        <time>2012-12-16T10:28:42Z</time>
      </trkpt>
      <trkpt lat="44.62877" lon="0.95261">
        <ele>238.06</ele>
        <time>2012-12-16T10:28:53Z</time>
      </trkpt>
      <trkpt lat="44.62903" lon="0.95247">
        <ele>236.62</ele>
        <time>2012-12-16T10:29:03Z</time>
      </trkpt>
      <trkpt lat="44.62946" lon="0.95235">
        <ele>234.7</ele>
        <time>2012-12-16T10:29:15Z</time>
      </trkpt>
      <trkpt lat="44.6295" lon="0.95234">
        <ele>234.22</ele>
        <time>2012-12-16T10:29:16Z</time>
      </trkpt>
      <trkpt lat="44.62979" lon="0.95213">
        <ele>235.18</ele>
        <time>2012-12-16T10:29:23Z</time>
      </trkpt>
      <trkpt lat="44.63008" lon="0.95179">
        <ele>236.62</ele>
        <time>2012-12-16T10:29:34Z</time>
      </trkpt>
      <trkpt lat="44.63036" lon="0.95155">
        <ele>237.1</ele>
        <time>2012-12-16T10:29:45Z</time>
      </trkpt>
      <trkpt lat="44.63039" lon="0.95154">
        <ele>237.1</ele>
        <time>2012-12-16T10:29:46Z</time>
      </trkpt>
      <trkpt lat="44.63071" lon="0.95161">
        <ele>239.99</ele>
        <time>2012-12-16T10:29:58Z</time>
      </trkpt>
      <trkpt lat="44.63111" lon="0.95176">
        <ele>240.95</ele>
        <time>2012-12-16T10:30:08Z</time>
      </trkpt>
      <trkpt lat="44.6312" lon="0.95183">
        <ele>242.87</ele>
        <time>2012-12-16T10:30:11Z</time>
      </trkpt>
      <trkpt lat="44.63145" lon="0.95173">
        <ele>245.75</ele>
        <time>2012-12-16T10:30:21Z</time>
      </trkpt>
      <trkpt lat="44.6318" lon="0.95151">
        <ele>250.56</ele>
        <time>2012-12-16T10:30:32Z</time>
      </trkpt>
      <trkpt lat="44.63193" lon="0.95136">
        <ele>252.96</ele>
        <time>2012-12-16T10:30:39Z</time>
      </trkpt>
      <trkpt lat="44.632" lon="0.95132">
        <ele>253.44</ele>
        <time>2012-12-16T10:30:44Z</time>
      </trkpt>
      <trkpt lat="44.63204" lon="0.95131">
        <ele>253.44</ele>
        <time>2012-12-16T10:30:47Z</time>
      </trkpt>
      <trkpt lat="44.63213" lon="0.9512">
        <ele>252.96</ele>
        <time>2012-12-16T10:30:54Z</time>
      </trkpt>
      <trkpt lat="44.63224" lon="0.9511">
        <ele>250.08</ele>
        <time>2012-12-16T10:31:02Z</time>
      </trkpt>
      <trkpt lat="44.63245" lon="0.95101">
        <ele>249.12</ele>
        <time>2012-12-16T10:31:12Z</time>
      </trkpt>
      <trkpt lat="44.63254" lon="0.95098">
        <ele>249.12</ele>
        <time>2012-12-16T10:31:15Z</time>
      </trkpt>
      <trkpt lat="44.63274" lon="0.9508">
        <ele>247.68</ele>
        <time>2012-12-16T10:31:25Z</time>
      </trkpt>
      <trkpt lat="44.63287" lon="0.95072">
        <ele>249.12</ele>
        <time>2012-12-16T10:31:35Z</time>
      </trkpt>
      <trkpt lat="44.63292" lon="0.9507">
        <ele>249.6</ele>
        <time>2012-12-16T10:31:53Z</time>
      </trkpt>
      <trkpt lat="44.63292" lon="0.95067">
        <ele>251.04</ele>
        <time>2012-12-16T10:32:12Z</time>
      </trkpt>
      <trkpt lat="44.63297" lon="0.95067">
        <ele>252.96</ele>
        <time>2012-12-16T10:32:31Z</time>
      </trkpt>
      <trkpt lat="44.63296" lon="0.9507">
        <ele>257.77</ele>
        <time>2012-12-16T10:32:53Z</time>
      </trkpt>
      <trkpt lat="44.63298" lon="0.95067">
        <ele>257.29</ele>
        <time>2012-12-16T10:33:06Z</time>
      </trkpt>
      <trkpt lat="44.63298" lon="0.95066">
        <ele>256.33</ele>
        <time>2012-12-16T10:33:07Z</time>
      </trkpt>
      <trkpt lat="44.63314" lon="0.95032">
        <ele>252.96</ele>
        <time>2012-12-16T10:33:17Z</time>
      </trkpt>
      <trkpt lat="44.63322" lon="0.9502">
        <ele>252</ele>
        <time>2012-12-16T10:33:19Z</time>
      </trkpt>
      <trkpt lat="44.63343" lon="0.94995">
        <ele>249.6</ele>
        <time>2012-12-16T10:33:24Z</time>
      </trkpt>
      <trkpt lat="44.63359" lon="0.94965">
        <ele>246.72</ele>
        <time>2012-12-16T10:33:28Z</time>
      </trkpt>
      <trkpt lat="44.63403" lon="0.9484">
        <ele>239.02</ele>
        <time>2012-12-16T10:33:41Z</time>
      </trkpt>
      <trkpt lat="44.63451" lon="0.94778">
        <ele>238.54</ele>
        <time>2012-12-16T10:33:51Z</time>
      </trkpt>
      <trkpt lat="44.63532" lon="0.94759">
        <ele>238.54</ele>
        <time>2012-12-16T10:34:04Z</time>
      </trkpt>
      <trkpt lat="44.63555" lon="0.94755">
        <ele>239.99</ele>
        <time>2012-12-16T10:34:08Z</time>
      </trkpt>
      <trkpt lat="44.63583" lon="0.9475">
        <ele>240.47</ele>
        <time>2012-12-16T10:34:13Z</time>
      </trkpt>
      <trkpt lat="44.6365" lon="0.94759">
        <ele>243.83</ele>
        <time>2012-12-16T10:34:26Z</time>
      </trkpt>
      <trkpt lat="44.63665" lon="0.94763">
        <ele>244.79</ele>
        <time>2012-12-16T10:34:29Z</time>
      </trkpt>
      <trkpt lat="44.63689" lon="0.94757">
        <ele>245.75</ele>
        <time>2012-12-16T10:34:35Z</time>
      </trkpt>
      <trkpt lat="44.63718" lon="0.94719">
        <ele>245.27</ele>
        <time>2012-12-16T10:34:45Z</time>
      </trkpt>
      <trkpt lat="44.63759" lon="0.94663">
        <ele>247.68</ele>
        <time>2012-12-16T10:34:59Z</time>
      </trkpt>
      <trkpt lat="44.6381" lon="0.94606">
        <ele>249.6</ele>
        <time>2012-12-16T10:35:15Z</time>
      </trkpt>
      <trkpt lat="44.63813" lon="0.94603">
        <ele>249.6</ele>
        <time>2012-12-16T10:35:16Z</time>
      </trkpt>
      <trkpt lat="44.63849" lon="0.94565">
        <ele>249.6</ele>
        <time>2012-12-16T10:35:27Z</time>
      </trkpt>
      <trkpt lat="44.6386" lon="0.94553">
        <ele>249.6</ele>
        <time>2012-12-16T10:35:30Z</time>
      </trkpt>
      <trkpt lat="44.63915" lon="0.94495">
        <ele>254.41</ele>
        <time>2012-12-16T10:35:46Z</time>
      </trkpt>
      <trkpt lat="44.63952" lon="0.94464">
        <ele>257.29</ele>
        <time>2012-12-16T10:35:58Z</time>
      </trkpt>
      <trkpt lat="44.63987" lon="0.94445">
        <ele>260.65</ele>
        <time>2012-12-16T10:36:08Z</time>
      </trkpt>
      <trkpt lat="44.64018" lon="0.94423">
        <ele>267.38</ele>
        <time>2012-12-16T10:36:20Z</time>
      </trkpt>
      <trkpt lat="44.64019" lon="0.94418">
        <ele>268.35</ele>
        <time>2012-12-16T10:36:43Z</time>
      </trkpt>
      <trkpt lat="44.64018" lon="0.9442">
        <ele>268.35</ele>
        <time>2012-12-16T10:37:03Z</time>
      </trkpt>
      <trkpt lat="44.64018" lon="0.94422">
        <ele>266.42</ele>
        <time>2012-12-16T10:37:24Z</time>
      </trkpt>
      <trkpt lat="44.64021" lon="0.94418">
        <ele>269.31</ele>
        <time>2012-12-16T10:37:54Z</time>
      </trkpt>
      <trkpt lat="44.64019" lon="0.94415">
        <ele>269.31</ele>
        <time>2012-12-16T10:38:23Z</time>
      </trkpt>
      <trkpt lat="44.64016" lon="0.94418">
        <ele>274.11</ele>
        <time>2012-12-16T10:38:48Z</time>
      </trkpt>
      <trkpt lat="44.64017" lon="0.94421">
        <ele>272.67</ele>
        <time>2012-12-16T10:39:14Z</time>
      </trkpt>
      <trkpt lat="44.64017" lon="0.94424">
        <ele>271.71</ele>
        <time>2012-12-16T10:39:44Z</time>
      </trkpt>
      <trkpt lat="44.6402" lon="0.94422">
        <ele>268.83</ele>
        <time>2012-12-16T10:40:11Z</time>
      </trkpt>
      <trkpt lat="44.64021" lon="0.94418">
        <ele>270.27</ele>
        <time>2012-12-16T10:40:36Z</time>
      </trkpt>
      <trkpt lat="44.6403" lon="0.94414">
        <ele>270.27</ele>
        <time>2012-12-16T10:41:01Z</time>
      </trkpt>
      <trkpt lat="44.64035" lon="0.94412">
        <ele>269.79</ele>
        <time>2012-12-16T10:41:05Z</time>
      </trkpt>
      <trkpt lat="44.64029" lon="0.94398">
        <ele>267.86</ele>
        <time>2012-12-16T10:41:14Z</time>
      </trkpt>
      <trkpt lat="44.63984" lon="0.9439">
        <ele>263.06</ele>
        <time>2012-12-16T10:41:28Z</time>
      </trkpt>
      <trkpt lat="44.6396" lon="0.94381">
        <ele>261.62</ele>
        <time>2012-12-16T10:41:36Z</time>
      </trkpt>
      <trkpt lat="44.63972" lon="0.94347">
        <ele>260.17</ele>
        <time>2012-12-16T10:41:44Z</time>
      </trkpt>
      <trkpt lat="44.63977" lon="0.94325">
        <ele>260.17</ele>
        <time>2012-12-16T10:41:48Z</time>
      </trkpt>
      <trkpt lat="44.63975" lon="0.94302">
        <ele>258.73</ele>
        <time>2012-12-16T10:41:52Z</time>
      </trkpt>
      <trkpt lat="44.63978" lon="0.94255">
        <ele>254.41</ele>
        <time>2012-12-16T10:42:00Z</time>
      </trkpt>
      <trkpt lat="44.63986" lon="0.9422">
        <ele>252</ele>
        <time>2012-12-16T10:42:05Z</time>
      </trkpt>
      <trkpt lat="44.6399" lon="0.94194">
        <ele>249.6</ele>
        <time>2012-12-16T10:42:10Z</time>
      </trkpt>
      <trkpt lat="44.63995" lon="0.94187">
        <ele>247.2</ele>
        <time>2012-12-16T10:42:13Z</time>
      </trkpt>
      <trkpt lat="44.63998" lon="0.94162">
        <ele>241.91</ele>
        <time>2012-12-16T10:42:19Z</time>
      </trkpt>
      <trkpt lat="44.63999" lon="0.94145">
        <ele>238.06</ele>
        <time>2012-12-16T10:42:22Z</time>
      </trkpt>
      <trkpt lat="44.63981" lon="0.94103">
        <ele>234.7</ele>
        <time>2012-12-16T10:42:30Z</time>
      </trkpt>
      <trkpt lat="44.63981" lon="0.94084">
        <ele>234.7</ele>
        <time>2012-12-16T10:42:33Z</time>
      </trkpt>
      <trkpt lat="44.63978" lon="0.94053">
        <ele>235.66</ele>
        <time>2012-12-16T10:42:38Z</time>
      </trkpt>
      <trkpt lat="44.63967" lon="0.93997">
        <ele>239.99</ele>
        <time>2012-12-16T10:42:47Z</time>
      </trkpt>
      <trkpt lat="44.63971" lon="0.93951">
        <ele>249.12</ele>
        <time>2012-12-16T10:42:57Z</time>
      </trkpt>
      <trkpt lat="44.6398" lon="0.93914">
        <ele>252.96</ele>
        <time>2012-12-16T10:43:07Z</time>
      </trkpt>
      <trkpt lat="44.63978" lon="0.939">
        <ele>253.93</ele>
        <time>2012-12-16T10:43:11Z</time>
      </trkpt>
      <trkpt lat="44.63974" lon="0.93876">
        <ele>251.52</ele>
        <time>2012-12-16T10:43:22Z</time>
      </trkpt>
      <trkpt lat="44.63966" lon="0.93848">
        <ele>253.93</ele>
        <time>2012-12-16T10:43:32Z</time>
      </trkpt>
      <trkpt lat="44.63953" lon="0.9381">
        <ele>256.33</ele>
        <time>2012-12-16T10:43:44Z</time>
      </trkpt>
      <trkpt lat="44.63953" lon="0.93808">
        <ele>256.81</ele>
        <time>2012-12-16T10:43:54Z</time>
      </trkpt>
      <trkpt lat="44.63951" lon="0.93805">
        <ele>257.29</ele>
        <time>2012-12-16T10:44:25Z</time>
      </trkpt>
      <trkpt lat="44.63956" lon="0.93797">
        <ele>258.25</ele>
        <time>2012-12-16T10:44:30Z</time>
      </trkpt>
      <trkpt lat="44.63959" lon="0.93791">
        <ele>259.21</ele>
        <time>2012-12-16T10:44:32Z</time>
      </trkpt>
      <trkpt lat="44.63964" lon="0.93783">
        <ele>260.65</ele>
        <time>2012-12-16T10:44:35Z</time>
      </trkpt>
      <trkpt lat="44.63964" lon="0.93757">
        <ele>263.06</ele>
        <time>2012-12-16T10:44:43Z</time>
      </trkpt>
      <trkpt lat="44.63954" lon="0.93714">
        <ele>263.06</ele>
        <time>2012-12-16T10:44:55Z</time>
      </trkpt>
      <trkpt lat="44.63962" lon="0.93684">
        <ele>263.54</ele>
        <time>2012-12-16T10:45:04Z</time>
      </trkpt>
      <trkpt lat="44.63963" lon="0.93668">
        <ele>265.46</ele>
        <time>2012-12-16T10:45:09Z</time>
      </trkpt>
      <trkpt lat="44.63958" lon="0.93615">
        <ele>263.06</ele>
        <time>2012-12-16T10:45:22Z</time>
      </trkpt>
      <trkpt lat="44.63951" lon="0.93594">
        <ele>259.21</ele>
        <time>2012-12-16T10:45:31Z</time>
      </trkpt>
      <trkpt lat="44.6394" lon="0.93555">
        <ele>262.58</ele>
        <time>2012-12-16T10:45:42Z</time>
      </trkpt>
      <trkpt lat="44.63929" lon="0.93529">
        <ele>263.54</ele>
        <time>2012-12-16T10:45:50Z</time>
      </trkpt>
      <trkpt lat="44.63905" lon="0.93515">
        <ele>266.42</ele>
        <time>2012-12-16T10:45:59Z</time>
      </trkpt>
      <trkpt lat="44.639" lon="0.93517">
        <ele>267.38</ele>
        <time>2012-12-16T10:46:01Z</time>
      </trkpt>
      <trkpt lat="44.6389" lon="0.93515">
        <ele>267.86</ele>
        <time>2012-12-16T10:46:05Z</time>
      </trkpt>
      <trkpt lat="44.63876" lon="0.93486">
        <ele>267.86</ele>
        <time>2012-12-16T10:46:13Z</time>
      </trkpt>
      <trkpt lat="44.63851" lon="0.93445">
        <ele>268.35</ele>
        <time>2012-12-16T10:46:25Z</time>
      </trkpt>
      <trkpt lat="44.63847" lon="0.93402">
        <ele>268.35</ele>
        <time>2012-12-16T10:46:37Z</time>
      </trkpt>
      <trkpt lat="44.63837" lon="0.93372">
        <ele>268.35</ele>
        <time>2012-12-16T10:46:46Z</time>
      </trkpt>
      <trkpt lat="44.63827" lon="0.93356">
        <ele>268.83</ele>
        <time>2012-12-16T10:46:53Z</time>
      </trkpt>
      <trkpt lat="44.63824" lon="0.93349">
        <ele>268.83</ele>
        <time>2012-12-16T10:46:55Z</time>
      </trkpt>
      <trkpt lat="44.63821" lon="0.9329">
        <ele>267.38</ele>
        <time>2012-12-16T10:47:07Z</time>
      </trkpt>
      <trkpt lat="44.63815" lon="0.93244">
        <ele>265.94</ele>
        <time>2012-12-16T10:47:17Z</time>
      </trkpt>
      <trkpt lat="44.638" lon="0.93215">
        <ele>270.27</ele>
        <time>2012-12-16T10:47:26Z</time>
      </trkpt>
      <trkpt lat="44.63777" lon="0.93184">
        <ele>269.79</ele>
        <time>2012-12-16T10:47:36Z</time>
      </trkpt>
      <trkpt lat="44.63756" lon="0.93157">
        <ele>267.38</ele>
        <time>2012-12-16T10:47:45Z</time>
      </trkpt>
      <trkpt lat="44.63728" lon="0.93126">
        <ele>265.46</ele>
        <time>2012-12-16T10:47:56Z</time>
      </trkpt>
      <trkpt lat="44.63716" lon="0.93119">
        <ele>265.94</ele>
        <time>2012-12-16T10:47:59Z</time>
      </trkpt>
      <trkpt lat="44.63706" lon="0.93099">
        <ele>263.54</ele>
        <time>2012-12-16T10:48:03Z</time>
      </trkpt>
      <trkpt lat="44.63692" lon="0.93058">
        <ele>259.21</ele>
        <time>2012-12-16T10:48:09Z</time>
      </trkpt>
      <trkpt lat="44.63687" lon="0.93032">
        <ele>256.81</ele>
        <time>2012-12-16T10:48:12Z</time>
      </trkpt>
      <trkpt lat="44.63682" lon="0.92981">
        <ele>254.89</ele>
        <time>2012-12-16T10:48:18Z</time>
      </trkpt>
      <trkpt lat="44.63676" lon="0.92931">
        <ele>250.56</ele>
        <time>2012-12-16T10:48:25Z</time>
      </trkpt>
      <trkpt lat="44.63682" lon="0.92874">
        <ele>246.23</ele>
        <time>2012-12-16T10:48:32Z</time>
      </trkpt>
      <trkpt lat="44.63681" lon="0.92794">
        <ele>245.75</ele>
        <time>2012-12-16T10:48:44Z</time>
      </trkpt>
      <trkpt lat="44.63681" lon="0.9277">
        <ele>245.27</ele>
        <time>2012-12-16T10:48:47Z</time>
      </trkpt>
      <trkpt lat="44.63678" lon="0.92714">
        <ele>245.75</ele>
        <time>2012-12-16T10:48:55Z</time>
      </trkpt>
      <trkpt lat="44.63679" lon="0.92701">
        <ele>245.75</ele>
        <time>2012-12-16T10:48:57Z</time>
      </trkpt>
      <trkpt lat="44.63682" lon="0.92686">
        <ele>245.27</ele>
        <time>2012-12-16T10:48:59Z</time>
      </trkpt>
      <trkpt lat="44.63684" lon="0.92636">
        <ele>243.83</ele>
        <time>2012-12-16T10:49:05Z</time>
      </trkpt>
      <trkpt lat="44.63682" lon="0.92584">
        <ele>244.31</ele>
        <time>2012-12-16T10:49:14Z</time>
      </trkpt>
      <trkpt lat="44.63681" lon="0.92582">
        <ele>247.68</ele>
        <time>2012-12-16T10:49:25Z</time>
      </trkpt>
      <trkpt lat="44.63681" lon="0.92582">
        <ele>249.6</ele>
        <time>2012-12-16T10:49:56Z</time>
      </trkpt>
      <trkpt lat="44.63682" lon="0.92582">
        <ele>248.16</ele>
        <time>2012-12-16T10:50:27Z</time>
      </trkpt>
      <trkpt lat="44.63682" lon="0.92582">
        <ele>250.56</ele>
        <time>2012-12-16T10:51:02Z</time>
      </trkpt>
      <trkpt lat="44.63681" lon="0.92582">
        <ele>250.56</ele>
        <time>2012-12-16T10:51:11Z</time>
      </trkpt>
      <trkpt lat="44.63657" lon="0.92576">
        <ele>251.04</ele>
        <time>2012-12-16T10:51:24Z</time>
      </trkpt>
      <trkpt lat="44.63611" lon="0.92568">
        <ele>250.56</ele>
        <time>2012-12-16T10:51:37Z</time>
      </trkpt>
      <trkpt lat="44.63562" lon="0.92559">
        <ele>252.48</ele>
        <time>2012-12-16T10:51:52Z</time>
      </trkpt>
      <trkpt lat="44.63512" lon="0.92558">
        <ele>254.89</ele>
        <time>2012-12-16T10:52:07Z</time>
      </trkpt>
      <trkpt lat="44.63508" lon="0.92559">
        <ele>254.89</ele>
        <time>2012-12-16T10:52:08Z</time>
      </trkpt>
      <trkpt lat="44.63495" lon="0.92563">
        <ele>254.41</ele>
        <time>2012-12-16T10:52:11Z</time>
      </trkpt>
      <trkpt lat="44.6342" lon="0.92552">
        <ele>254.89</ele>
        <time>2012-12-16T10:52:27Z</time>
      </trkpt>
      <trkpt lat="44.63389" lon="0.92527">
        <ele>253.93</ele>
        <time>2012-12-16T10:52:38Z</time>
      </trkpt>
      <trkpt lat="44.63349" lon="0.92499">
        <ele>255.85</ele>
        <time>2012-12-16T10:52:50Z</time>
      </trkpt>
      <trkpt lat="44.63314" lon="0.92474">
        <ele>259.21</ele>
        <time>2012-12-16T10:52:59Z</time>
      </trkpt>
      <trkpt lat="44.63253" lon="0.92415">
        <ele>261.14</ele>
        <time>2012-12-16T10:53:14Z</time>
      </trkpt>
      <trkpt lat="44.63245" lon="0.9241">
        <ele>261.62</ele>
        <time>2012-12-16T10:53:16Z</time>
      </trkpt>
      <trkpt lat="44.6321" lon="0.92381">
        <ele>260.65</ele>
        <time>2012-12-16T10:53:27Z</time>
      </trkpt>
      <trkpt lat="44.63188" lon="0.92358">
        <ele>260.17</ele>
        <time>2012-12-16T10:53:33Z</time>
      </trkpt>
      <trkpt lat="44.63175" lon="0.9235">
        <ele>259.21</ele>
        <time>2012-12-16T10:53:36Z</time>
      </trkpt>
      <trkpt lat="44.63153" lon="0.92335">
        <ele>259.21</ele>
        <time>2012-12-16T10:53:41Z</time>
      </trkpt>
      <trkpt lat="44.63115" lon="0.92306">
        <ele>258.25</ele>
        <time>2012-12-16T10:53:53Z</time>
      </trkpt>
      <trkpt lat="44.63078" lon="0.92268">
        <ele>256.81</ele>
        <time>2012-12-16T10:54:04Z</time>
      </trkpt>
      <trkpt lat="44.63037" lon="0.9223">
        <ele>254.89</ele>
        <time>2012-12-16T10:54:13Z</time>
      </trkpt>
      <trkpt lat="44.63015" lon="0.92219">
        <ele>253.93</ele>
        <time>2012-12-16T10:54:17Z</time>
      </trkpt>
      <trkpt lat="44.62975" lon="0.92203">
        <ele>251.52</ele>
        <time>2012-12-16T10:54:23Z</time>
      </trkpt>
      <trkpt lat="44.62959" lon="0.92193">
        <ele>249.6</ele>
        <time>2012-12-16T10:54:25Z</time>
      </trkpt>
      <trkpt lat="44.62851" lon="0.92117">
        <ele>238.06</ele>
        <time>2012-12-16T10:54:37Z</time>
      </trkpt>
      <trkpt lat="44.62803" lon="0.92123">
        <ele>237.58</ele>
        <time>2012-12-16T10:54:45Z</time>
      </trkpt>
      <trkpt lat="44.62792" lon="0.92128">
        <ele>238.06</ele>
        <time>2012-12-16T10:54:47Z</time>
      </trkpt>
      <trkpt lat="44.62777" lon="0.92132">
        <ele>238.54</ele>
        <time>2012-12-16T10:54:50Z</time>
      </trkpt>
      <trkpt lat="44.6276" lon="0.92113">
        <ele>239.02</ele>
        <time>2012-12-16T10:55:00Z</time>
      </trkpt>
      <trkpt lat="44.62742" lon="0.9207">
        <ele>239.99</ele>
        <time>2012-12-16T10:55:14Z</time>
      </trkpt>
      <trkpt lat="44.62717" lon="0.92019">
        <ele>241.91</ele>
        <time>2012-12-16T10:55:29Z</time>
      </trkpt>
      <trkpt lat="44.62691" lon="0.91982">
        <ele>239.51</ele>
        <time>2012-12-16T10:55:42Z</time>
      </trkpt>
      <trkpt lat="44.62654" lon="0.91922">
        <ele>238.54</ele>
        <time>2012-12-16T10:55:58Z</time>
      </trkpt>
      <trkpt lat="44.6262" lon="0.91841">
        <ele>232.78</ele>
        <time>2012-12-16T10:56:13Z</time>
      </trkpt>
      <trkpt lat="44.62608" lon="0.91807">
        <ele>233.74</ele>
        <time>2012-12-16T10:56:23Z</time>
      </trkpt>
      <trkpt lat="44.62596" lon="0.91773">
        <ele>231.81</ele>
        <time>2012-12-16T10:56:34Z</time>
      </trkpt>
      <trkpt lat="44.62592" lon="0.91759">
        <ele>231.33</ele>
        <time>2012-12-16T10:56:37Z</time>
      </trkpt>
      <trkpt lat="44.62574" lon="0.91714">
        <ele>231.33</ele>
        <time>2012-12-16T10:56:47Z</time>
      </trkpt>
      <trkpt lat="44.62551" lon="0.9166">
        <ele>231.33</ele>
        <time>2012-12-16T10:56:59Z</time>
      </trkpt>
      <trkpt lat="44.62532" lon="0.91622">
        <ele>230.37</ele>
        <time>2012-12-16T10:57:06Z</time>
      </trkpt>
      <trkpt lat="44.62511" lon="0.91569">
        <ele>229.89</ele>
        <time>2012-12-16T10:57:19Z</time>
      </trkpt>
      <trkpt lat="44.62494" lon="0.91516">
        <ele>228.93</ele>
        <time>2012-12-16T10:57:31Z</time>
      </trkpt>
      <trkpt lat="44.62483" lon="0.91474">
        <ele>225.57</ele>
        <time>2012-12-16T10:57:41Z</time>
      </trkpt>
      <trkpt lat="44.62469" lon="0.91426">
        <ele>225.57</ele>
        <time>2012-12-16T10:57:53Z</time>
      </trkpt>
      <trkpt lat="44.62463" lon="0.91415">
        <ele>227.01</ele>
        <time>2012-12-16T10:57:59Z</time>
      </trkpt>
      <trkpt lat="44.62456" lon="0.91397">
        <ele>227.49</ele>
        <time>2012-12-16T10:58:08Z</time>
      </trkpt>
      <trkpt lat="44.62447" lon="0.91376">
        <ele>227.49</ele>
        <time>2012-12-16T10:58:13Z</time>
      </trkpt>
      <trkpt lat="44.62407" lon="0.91284">
        <ele>223.64</ele>
        <time>2012-12-16T10:58:27Z</time>
      </trkpt>
      <trkpt lat="44.62377" lon="0.91218">
        <ele>222.68</ele>
        <time>2012-12-16T10:58:39Z</time>
      </trkpt>
      <trkpt lat="44.6234" lon="0.91156">
        <ele>224.61</ele>
        <time>2012-12-16T10:58:52Z</time>
      </trkpt>
      <trkpt lat="44.62336" lon="0.91152">
        <ele>225.09</ele>
        <time>2012-12-16T10:58:53Z</time>
      </trkpt>
      <trkpt lat="44.62301" lon="0.91101">
        <ele>227.49</ele>
        <time>2012-12-16T10:59:06Z</time>
      </trkpt>
      <trkpt lat="44.62291" lon="0.91089">
        <ele>229.89</ele>
        <time>2012-12-16T10:59:16Z</time>
      </trkpt>
      <trkpt lat="44.62285" lon="0.9108">
        <ele>231.33</ele>
        <time>2012-12-16T10:59:30Z</time>
      </trkpt>
      <trkpt lat="44.62278" lon="0.91069">
        <ele>231.33</ele>
        <time>2012-12-16T10:59:35Z</time>
      </trkpt>
      <trkpt lat="44.62259" lon="0.9103">
        <ele>230.37</ele>
        <time>2012-12-16T10:59:49Z</time>
      </trkpt>
      <trkpt lat="44.6224" lon="0.90985">
        <ele>230.85</ele>
        <time>2012-12-16T11:00:03Z</time>
      </trkpt>
      <trkpt lat="44.62226" lon="0.9093">
        <ele>231.33</ele>
        <time>2012-12-16T11:00:14Z</time>
      </trkpt>
      <trkpt lat="44.62212" lon="0.90863">
        <ele>230.85</ele>
        <time>2012-12-16T11:00:27Z</time>
      </trkpt>
      <trkpt lat="44.6221" lon="0.90851">
        <ele>230.37</ele>
        <time>2012-12-16T11:00:29Z</time>
      </trkpt>
      <trkpt lat="44.62206" lon="0.90813">
        <ele>230.37</ele>
        <time>2012-12-16T11:00:35Z</time>
      </trkpt>
      <trkpt lat="44.62186" lon="0.9073">
        <ele>230.85</ele>
        <time>2012-12-16T11:00:50Z</time>
      </trkpt>
      <trkpt lat="44.6218" lon="0.90692">
        <ele>229.89</ele>
        <time>2012-12-16T11:00:56Z</time>
      </trkpt>
      <trkpt lat="44.62143" lon="0.90582">
        <ele>228.45</ele>
        <time>2012-12-16T11:01:11Z</time>
      </trkpt>
      <trkpt lat="44.62098" lon="0.90513">
        <ele>222.2</ele>
        <time>2012-12-16T11:01:20Z</time>
      </trkpt>
      <trkpt lat="44.6209" lon="0.90495">
        <ele>221.24</ele>
        <time>2012-12-16T11:01:22Z</time>
      </trkpt>
      <trkpt lat="44.62064" lon="0.90461">
        <ele>218.84</ele>
        <time>2012-12-16T11:01:26Z</time>
      </trkpt>
      <trkpt lat="44.6203" lon="0.90434">
        <ele>217.88</ele>
        <time>2012-12-16T11:01:30Z</time>
      </trkpt>
      <trkpt lat="44.61982" lon="0.90374">
        <ele>215.47</ele>
        <time>2012-12-16T11:01:37Z</time>
      </trkpt>
      <trkpt lat="44.61953" lon="0.90349">
        <ele>214.99</ele>
        <time>2012-12-16T11:01:41Z</time>
      </trkpt>
      <trkpt lat="44.61938" lon="0.90341">
        <ele>214.51</ele>
        <time>2012-12-16T11:01:43Z</time>
      </trkpt>
      <trkpt lat="44.61872" lon="0.90291">
        <ele>211.15</ele>
        <time>2012-12-16T11:01:54Z</time>
      </trkpt>
      <trkpt lat="44.61861" lon="0.90279">
        <ele>210.67</ele>
        <time>2012-12-16T11:01:56Z</time>
      </trkpt>
      <trkpt lat="44.6185" lon="0.90266">
        <ele>209.7</ele>
        <time>2012-12-16T11:01:58Z</time>
      </trkpt>
      <trkpt lat="44.61841" lon="0.9025">
        <ele>208.26</ele>
        <time>2012-12-16T11:02:00Z</time>
      </trkpt>
      <trkpt lat="44.61782" lon="0.90127">
        <ele>199.61</ele>
        <time>2012-12-16T11:02:12Z</time>
      </trkpt>
      <trkpt lat="44.61745" lon="0.90039">
        <ele>199.61</ele>
        <time>2012-12-16T11:02:23Z</time>
      </trkpt>
      <trkpt lat="44.61742" lon="0.90034">
        <ele>201.05</ele>
        <time>2012-12-16T11:02:33Z</time>
      </trkpt>
      <trkpt lat="44.61739" lon="0.90023">
        <ele>202.01</ele>
        <time>2012-12-16T11:02:44Z</time>
      </trkpt>
      <trkpt lat="44.61738" lon="0.90024">
        <ele>201.53</ele>
        <time>2012-12-16T11:03:06Z</time>
      </trkpt>
      <trkpt lat="44.61738" lon="0.90021">
        <ele>203.46</ele>
        <time>2012-12-16T11:03:23Z</time>
      </trkpt>
      <trkpt lat="44.61729" lon="0.90001">
        <ele>202.49</ele>
        <time>2012-12-16T11:03:30Z</time>
      </trkpt>
      <trkpt lat="44.61722" lon="0.89985">
        <ele>202.01</ele>
        <time>2012-12-16T11:03:33Z</time>
      </trkpt>
      <trkpt lat="44.6171" lon="0.89956">
        <ele>201.53</ele>
        <time>2012-12-16T11:03:38Z</time>
      </trkpt>
      <trkpt lat="44.61667" lon="0.89843">
        <ele>198.17</ele>
        <time>2012-12-16T11:03:53Z</time>
      </trkpt>
      <trkpt lat="44.61664" lon="0.89835">
        <ele>197.69</ele>
        <time>2012-12-16T11:03:54Z</time>
      </trkpt>
      <trkpt lat="44.61605" lon="0.89689">
        <ele>191.92</ele>
        <time>2012-12-16T11:04:12Z</time>
      </trkpt>
      <trkpt lat="44.61601" lon="0.89582">
        <ele>189.04</ele>
        <time>2012-12-16T11:04:23Z</time>
      </trkpt>
      <trkpt lat="44.61607" lon="0.89543">
        <ele>188.08</ele>
        <time>2012-12-16T11:04:27Z</time>
      </trkpt>
      <trkpt lat="44.61617" lon="0.89505">
        <ele>187.59</ele>
        <time>2012-12-16T11:04:31Z</time>
      </trkpt>
      <trkpt lat="44.61613" lon="0.89373">
        <ele>187.11</ele>
        <time>2012-12-16T11:04:44Z</time>
      </trkpt>
      <trkpt lat="44.61583" lon="0.89276">
        <ele>185.67</ele>
        <time>2012-12-16T11:04:55Z</time>
      </trkpt>
      <trkpt lat="44.61556" lon="0.89135">
        <ele>184.71</ele>
        <time>2012-12-16T11:05:10Z</time>
      </trkpt>
      <trkpt lat="44.61521" lon="0.8902">
        <ele>184.71</ele>
        <time>2012-12-16T11:05:23Z</time>
      </trkpt>
      <trkpt lat="44.61504" lon="0.89">
        <ele>184.23</ele>
        <time>2012-12-16T11:05:26Z</time>
      </trkpt>
      <trkpt lat="44.61475" lon="0.88974">
        <ele>183.75</ele>
        <time>2012-12-16T11:05:31Z</time>
      </trkpt>
      <trkpt lat="44.61396" lon="0.88913">
        <ele>181.35</ele>
        <time>2012-12-16T11:05:44Z</time>
      </trkpt>
      <trkpt lat="44.61316" lon="0.88829">
        <ele>179.42</ele>
        <time>2012-12-16T11:05:58Z</time>
      </trkpt>
      <trkpt lat="44.61273" lon="0.88797">
        <ele>179.9</ele>
        <time>2012-12-16T11:06:05Z</time>
      </trkpt>
      <trkpt lat="44.61204" lon="0.88735">
        <ele>180.38</ele>
        <time>2012-12-16T11:06:19Z</time>
      </trkpt>
      <trkpt lat="44.61185" lon="0.88715">
        <ele>180.38</ele>
        <time>2012-12-16T11:06:23Z</time>
      </trkpt>
      <trkpt lat="44.61141" lon="0.88674">
        <ele>182.79</ele>
        <time>2012-12-16T11:06:35Z</time>
      </trkpt>
      <trkpt lat="44.61102" lon="0.88641">
        <ele>183.75</ele>
        <time>2012-12-16T11:06:49Z</time>
      </trkpt>
      <trkpt lat="44.61097" lon="0.88633">
        <ele>183.75</ele>
        <time>2012-12-16T11:06:51Z</time>
      </trkpt>
      <trkpt lat="44.61053" lon="0.88585">
        <ele>189.04</ele>
        <time>2012-12-16T11:07:06Z</time>
      </trkpt>
      <trkpt lat="44.61049" lon="0.88581">
        <ele>189.52</ele>
        <time>2012-12-16T11:07:08Z</time>
      </trkpt>
      <trkpt lat="44.61045" lon="0.8858">
        <ele>190.48</ele>
        <time>2012-12-16T11:07:10Z</time>
      </trkpt>
      <trkpt lat="44.61039" lon="0.88588">
        <ele>191.44</ele>
        <time>2012-12-16T11:07:21Z</time>
      </trkpt>
      <trkpt lat="44.61038" lon="0.88586">
        <ele>188.56</ele>
        <time>2012-12-16T11:07:45Z</time>
      </trkpt>
      <trkpt lat="44.61037" lon="0.88588">
        <ele>189.52</ele>
        <time>2012-12-16T11:08:02Z</time>
      </trkpt>
      <trkpt lat="44.61036" lon="0.88636">
        <ele>189.04</ele>
        <time>2012-12-16T11:08:13Z</time>
      </trkpt>
      <trkpt lat="44.61037" lon="0.88708">
        <ele>186.63</ele>
        <time>2012-12-16T11:08:20Z</time>
      </trkpt>
      <trkpt lat="44.61022" lon="0.88735">
        <ele>184.71</ele>
        <time>2012-12-16T11:08:25Z</time>
      </trkpt>
      <trkpt lat="44.60953" lon="0.88791">
        <ele>184.23</ele>
        <time>2012-12-16T11:08:36Z</time>
      </trkpt>
      <trkpt lat="44.60913" lon="0.8883">
        <ele>184.71</ele>
        <time>2012-12-16T11:08:43Z</time>
      </trkpt>
      <trkpt lat="44.60854" lon="0.88872">
        <ele>185.67</ele>
        <time>2012-12-16T11:08:54Z</time>
      </trkpt>
      <trkpt lat="44.60784" lon="0.88921">
        <ele>185.19</ele>
        <time>2012-12-16T11:09:06Z</time>
      </trkpt>
      <trkpt lat="44.60731" lon="0.88951">
        <ele>186.15</ele>
        <time>2012-12-16T11:09:14Z</time>
      </trkpt>
      <trkpt lat="44.60719" lon="0.8896">
        <ele>186.63</ele>
        <time>2012-12-16T11:09:16Z</time>
      </trkpt>
      <trkpt lat="44.60654" lon="0.88982">
        <ele>185.19</ele>
        <time>2012-12-16T11:09:27Z</time>
      </trkpt>
      <trkpt lat="44.60564" lon="0.89012">
        <ele>180.87</ele>
        <time>2012-12-16T11:09:41Z</time>
      </trkpt>
      <trkpt lat="44.60547" lon="0.89019">
        <ele>179.9</ele>
        <time>2012-12-16T11:09:44Z</time>
      </trkpt>
      <trkpt lat="44.60506" lon="0.89052">
        <ele>179.42</ele>
        <time>2012-12-16T11:09:52Z</time>
      </trkpt>
      <trkpt lat="44.60489" lon="0.89062">
        <ele>179.9</ele>
        <time>2012-12-16T11:09:55Z</time>
      </trkpt>
      <trkpt lat="44.60466" lon="0.89069">
        <ele>180.38</ele>
        <time>2012-12-16T11:09:59Z</time>
      </trkpt>
      <trkpt lat="44.60438" lon="0.89089">
        <ele>176.54</ele>
        <time>2012-12-16T11:10:04Z</time>
      </trkpt>
      <trkpt lat="44.60364" lon="0.89138">
        <ele>170.29</ele>
        <time>2012-12-16T11:10:16Z</time>
      </trkpt>
      <trkpt lat="44.60337" lon="0.89157">
        <ele>167.89</ele>
        <time>2012-12-16T11:10:20Z</time>
      </trkpt>
      <trkpt lat="44.60297" lon="0.89213">
        <ele>165.48</ele>
        <time>2012-12-16T11:10:27Z</time>
      </trkpt>
      <trkpt lat="44.60264" lon="0.89234">
        <ele>166.45</ele>
        <time>2012-12-16T11:10:32Z</time>
      </trkpt>
      <trkpt lat="44.60225" lon="0.89249">
        <ele>167.41</ele>
        <time>2012-12-16T11:10:38Z</time>
      </trkpt>
      <trkpt lat="44.60214" lon="0.89255">
        <ele>167.89</ele>
        <time>2012-12-16T11:10:40Z</time>
      </trkpt>
      <trkpt lat="44.60189" lon="0.89275">
        <ele>166.45</ele>
        <time>2012-12-16T11:10:44Z</time>
      </trkpt>
      <trkpt lat="44.60149" lon="0.89304">
        <ele>165</ele>
        <time>2012-12-16T11:10:50Z</time>
      </trkpt>
      <trkpt lat="44.60135" lon="0.89306">
        <ele>165.96</ele>
        <time>2012-12-16T11:10:52Z</time>
      </trkpt>
      <trkpt lat="44.60127" lon="0.89318">
        <ele>168.85</ele>
        <time>2012-12-16T11:10:56Z</time>
      </trkpt>
      <trkpt lat="44.60124" lon="0.89344">
        <ele>169.33</ele>
        <time>2012-12-16T11:11:01Z</time>
      </trkpt>
      <trkpt lat="44.60123" lon="0.89356">
        <ele>169.33</ele>
        <time>2012-12-16T11:11:03Z</time>
      </trkpt>
      <trkpt lat="44.60117" lon="0.89394">
        <ele>168.85</ele>
        <time>2012-12-16T11:11:09Z</time>
      </trkpt>
      <trkpt lat="44.60076" lon="0.89488">
        <ele>168.85</ele>
        <time>2012-12-16T11:11:26Z</time>
      </trkpt>
      <trkpt lat="44.60064" lon="0.89504">
        <ele>167.89</ele>
        <time>2012-12-16T11:11:30Z</time>
      </trkpt>
      <trkpt lat="44.6001" lon="0.89536">
        <ele>164.52</ele>
        <time>2012-12-16T11:11:45Z</time>
      </trkpt>
      <trkpt lat="44.60008" lon="0.89547">
        <ele>164.52</ele>
        <time>2012-12-16T11:11:47Z</time>
      </trkpt>
      <trkpt lat="44.60001" lon="0.89564">
        <ele>164.04</ele>
        <time>2012-12-16T11:11:52Z</time>
      </trkpt>
      <trkpt lat="44.5999" lon="0.89564">
        <ele>164.52</ele>
        <time>2012-12-16T11:12:02Z</time>
      </trkpt>
    </trkseg>
  </trk>
</gpx>